<?xml version='1.0' encoding='UTF-8'?>
<gpx version="1.1" creator="https://www.komoot.de" xmlns="http://www.topografix.com/GPX/1/1" xmlns:xsi="http://www.w3.org/2001/XMLSchema-instance" xsi:schemaLocation="http://www.topografix.com/GPX/1/1 http://www.topografix.com/GPX/1/1/gpx.xsd">
  <metadata>
    <name>Lemgo radelt-7-26 08 2025-Eine Tour an die Baggerseen in Lage und Bad Salzuflen</name>
    <author>
      <link href="https://www.komoot.de">
        <text>komoot</text>
        <type>text/html</type>
      </link>
    </author>
  </metadata>
  <trk>
    <name>Lemgo radelt-7-26 08 2025-Eine Tour an die Baggerseen in Lage und Bad Salzuflen</name>
    <trkseg>
      <trkpt lat="52.024446" lon="8.907343">
        <ele>98.014603</ele>
        <time>2024-09-23T14:15:00.086Z</time>
      </trkpt>
      <trkpt lat="52.024459" lon="8.907294">
        <ele>98.014603</ele>
        <time>2024-09-23T14:15:01.008Z</time>
      </trkpt>
      <trkpt lat="52.024501" lon="8.907135">
        <ele>98.014603</ele>
        <time>2024-09-23T14:15:03.860Z</time>
      </trkpt>
      <trkpt lat="52.024398" lon="8.907059">
        <ele>98.014603</ele>
        <time>2024-09-23T14:15:06.938Z</time>
      </trkpt>
      <trkpt lat="52.024216" lon="8.906957">
        <ele>98.014603</ele>
        <time>2024-09-23T14:15:20.337Z</time>
      </trkpt>
      <trkpt lat="52.024300" lon="8.906689">
        <ele>98.014603</ele>
        <time>2024-09-23T14:15:25.899Z</time>
      </trkpt>
      <trkpt lat="52.024396" lon="8.906385">
        <ele>98.014603</ele>
        <time>2024-09-23T14:15:32.519Z</time>
      </trkpt>
      <trkpt lat="52.024340" lon="8.906308">
        <ele>98.019495</ele>
        <time>2024-09-23T14:15:34.441Z</time>
      </trkpt>
      <trkpt lat="52.024136" lon="8.906030">
        <ele>98.110587</ele>
        <time>2024-09-23T14:15:42.011Z</time>
      </trkpt>
      <trkpt lat="52.023984" lon="8.905573">
        <ele>98.219960</ele>
        <time>2024-09-23T14:15:50.946Z</time>
      </trkpt>
      <trkpt lat="52.023908" lon="8.905051">
        <ele>98.332896</ele>
        <time>2024-09-23T14:16:00.355Z</time>
      </trkpt>
      <trkpt lat="52.023846" lon="8.904631">
        <ele>98.423831</ele>
        <time>2024-09-23T14:16:07.882Z</time>
      </trkpt>
      <trkpt lat="52.023851" lon="8.904259">
        <ele>98.502171</ele>
        <time>2024-09-23T14:16:14.400Z</time>
      </trkpt>
      <trkpt lat="52.023872" lon="8.904100">
        <ele>98.536409</ele>
        <time>2024-09-23T14:16:17.202Z</time>
      </trkpt>
      <trkpt lat="52.023892" lon="8.904000">
        <ele>98.558547</ele>
        <time>2024-09-23T14:16:19.056Z</time>
      </trkpt>
      <trkpt lat="52.023946" lon="8.903493">
        <ele>98.662816</ele>
        <time>2024-09-23T14:16:28.144Z</time>
      </trkpt>
      <trkpt lat="52.023918" lon="8.901989">
        <ele>98.944705</ele>
        <time>2024-09-23T14:16:54.243Z</time>
      </trkpt>
      <trkpt lat="52.023986" lon="8.901106">
        <ele>99.111416</ele>
        <time>2024-09-23T14:17:08.684Z</time>
      </trkpt>
      <trkpt lat="52.024077" lon="8.899614">
        <ele>100.473353</ele>
        <time>2024-09-23T14:17:36.349Z</time>
      </trkpt>
      <trkpt lat="52.024083" lon="8.899548">
        <ele>100.548792</ele>
        <time>2024-09-23T14:17:37.860Z</time>
      </trkpt>
      <trkpt lat="52.024100" lon="8.899368">
        <ele>100.754708</ele>
        <time>2024-09-23T14:17:40.750Z</time>
      </trkpt>
      <trkpt lat="52.024068" lon="8.899374">
        <ele>100.813902</ele>
        <time>2024-09-23T14:17:41.883Z</time>
      </trkpt>
      <trkpt lat="52.023849" lon="8.899407">
        <ele>101.218065</ele>
        <time>2024-09-23T14:17:50.792Z</time>
      </trkpt>
      <trkpt lat="52.023683" lon="8.899522">
        <ele>101.549669</ele>
        <time>2024-09-23T14:17:56.738Z</time>
      </trkpt>
      <trkpt lat="52.023616" lon="8.899563">
        <ele>101.681228</ele>
        <time>2024-09-23T14:17:59.927Z</time>
      </trkpt>
      <trkpt lat="52.023555" lon="8.899599">
        <ele>101.800485</ele>
        <time>2024-09-23T14:18:03.155Z</time>
      </trkpt>
      <trkpt lat="52.023471" lon="8.899642">
        <ele>101.962322</ele>
        <time>2024-09-23T14:18:07.258Z</time>
      </trkpt>
      <trkpt lat="52.023406" lon="8.899712">
        <ele>102.105613</ele>
        <time>2024-09-23T14:18:10.611Z</time>
      </trkpt>
      <trkpt lat="52.023128" lon="8.899859">
        <ele>102.884205</ele>
        <time>2024-09-23T14:18:26.410Z</time>
      </trkpt>
      <trkpt lat="52.023091" lon="8.899889">
        <ele>103.074820</ele>
        <time>2024-09-23T14:18:28.298Z</time>
      </trkpt>
      <trkpt lat="52.023041" lon="8.899928">
        <ele>103.330486</ele>
        <time>2024-09-23T14:18:31.164Z</time>
      </trkpt>
      <trkpt lat="52.022963" lon="8.899978">
        <ele>103.717015</ele>
        <time>2024-09-23T14:18:35.963Z</time>
      </trkpt>
      <trkpt lat="52.022906" lon="8.899993">
        <ele>103.983198</ele>
        <time>2024-09-23T14:18:39.223Z</time>
      </trkpt>
      <trkpt lat="52.022863" lon="8.900004">
        <ele>104.183862</ele>
        <time>2024-09-23T14:18:41.619Z</time>
      </trkpt>
      <trkpt lat="52.022833" lon="8.900013">
        <ele>104.324493</ele>
        <time>2024-09-23T14:18:43.483Z</time>
      </trkpt>
      <trkpt lat="52.022828" lon="8.899981">
        <ele>104.418147</ele>
        <time>2024-09-23T14:18:44.391Z</time>
      </trkpt>
      <trkpt lat="52.022797" lon="8.899796">
        <ele>104.962036</ele>
        <time>2024-09-23T14:18:50.427Z</time>
      </trkpt>
      <trkpt lat="52.022792" lon="8.899707">
        <ele>105.215548</ele>
        <time>2024-09-23T14:18:53.097Z</time>
      </trkpt>
      <trkpt lat="52.022756" lon="8.899700">
        <ele>105.382686</ele>
        <time>2024-09-23T14:18:55.141Z</time>
      </trkpt>
      <trkpt lat="52.022670" lon="8.899678">
        <ele>105.784014</ele>
        <time>2024-09-23T14:19:00.209Z</time>
      </trkpt>
      <trkpt lat="52.022571" lon="8.899653">
        <ele>106.245864</ele>
        <time>2024-09-23T14:19:05.161Z</time>
      </trkpt>
      <trkpt lat="52.022332" lon="8.899593">
        <ele>107.360683</ele>
        <time>2024-09-23T14:19:17.770Z</time>
      </trkpt>
      <trkpt lat="52.021981" lon="8.899493">
        <ele>109.003412</ele>
        <time>2024-09-23T14:19:36.314Z</time>
      </trkpt>
      <trkpt lat="52.021367" lon="8.899321">
        <ele>111.349696</ele>
        <time>2024-09-23T14:20:07.155Z</time>
      </trkpt>
      <trkpt lat="52.021224" lon="8.899213">
        <ele>111.729499</ele>
        <time>2024-09-23T14:20:14.713Z</time>
      </trkpt>
      <trkpt lat="52.020953" lon="8.898970">
        <ele>112.474991</ele>
        <time>2024-09-23T14:20:28.057Z</time>
      </trkpt>
      <trkpt lat="52.020901" lon="8.898928">
        <ele>112.614853</ele>
        <time>2024-09-23T14:20:30.335Z</time>
      </trkpt>
      <trkpt lat="52.020279" lon="8.898426">
        <ele>114.287567</ele>
        <time>2024-09-23T14:20:55.015Z</time>
      </trkpt>
      <trkpt lat="52.019783" lon="8.898084">
        <ele>115.018522</ele>
        <time>2024-09-23T14:21:10.141Z</time>
      </trkpt>
      <trkpt lat="52.019676" lon="8.898034">
        <ele>114.969313</ele>
        <time>2024-09-23T14:21:13.184Z</time>
      </trkpt>
      <trkpt lat="52.019296" lon="8.897967">
        <ele>114.800370</ele>
        <time>2024-09-23T14:21:22.674Z</time>
      </trkpt>
      <trkpt lat="52.019129" lon="8.897880">
        <ele>114.722857</ele>
        <time>2024-09-23T14:21:26.817Z</time>
      </trkpt>
      <trkpt lat="52.018499" lon="8.897354">
        <ele>114.409797</ele>
        <time>2024-09-23T14:21:43.281Z</time>
      </trkpt>
      <trkpt lat="52.018432" lon="8.897310">
        <ele>114.377857</ele>
        <time>2024-09-23T14:21:44.952Z</time>
      </trkpt>
      <trkpt lat="52.018370" lon="8.897258">
        <ele>114.347018</ele>
        <time>2024-09-23T14:21:46.649Z</time>
      </trkpt>
      <trkpt lat="52.018011" lon="8.896748">
        <ele>114.180759</ele>
        <time>2024-09-23T14:21:58.113Z</time>
      </trkpt>
      <trkpt lat="52.017836" lon="8.896475">
        <ele>114.100777</ele>
        <time>2024-09-23T14:22:04.168Z</time>
      </trkpt>
      <trkpt lat="52.017698" lon="8.896259">
        <ele>114.037605</ele>
        <time>2024-09-23T14:22:08.993Z</time>
      </trkpt>
      <trkpt lat="52.017625" lon="8.896164">
        <ele>114.006770</ele>
        <time>2024-09-23T14:22:11.331Z</time>
      </trkpt>
      <trkpt lat="52.017411" lon="8.895903">
        <ele>113.918552</ele>
        <time>2024-09-23T14:22:18.343Z</time>
      </trkpt>
      <trkpt lat="52.017073" lon="8.895568">
        <ele>113.788021</ele>
        <time>2024-09-23T14:22:28.794Z</time>
      </trkpt>
      <trkpt lat="52.016916" lon="8.895413">
        <ele>113.727454</ele>
        <time>2024-09-23T14:22:33.785Z</time>
      </trkpt>
      <trkpt lat="52.016800" lon="8.895210">
        <ele>113.777674</ele>
        <time>2024-09-23T14:22:38.207Z</time>
      </trkpt>
      <trkpt lat="52.016712" lon="8.894966">
        <ele>113.849752</ele>
        <time>2024-09-23T14:22:42.912Z</time>
      </trkpt>
      <trkpt lat="52.016678" lon="8.894870">
        <ele>113.877981</ele>
        <time>2024-09-23T14:22:44.763Z</time>
      </trkpt>
      <trkpt lat="52.016550" lon="8.894466">
        <ele>113.993790</ele>
        <time>2024-09-23T14:22:52.308Z</time>
      </trkpt>
      <trkpt lat="52.016404" lon="8.894007">
        <ele>114.125475</ele>
        <time>2024-09-23T14:23:01.482Z</time>
      </trkpt>
      <trkpt lat="52.016199" lon="8.893466">
        <ele>114.287398</ele>
        <time>2024-09-23T14:23:13.203Z</time>
      </trkpt>
      <trkpt lat="52.015762" lon="8.892411">
        <ele>114.868238</ele>
        <time>2024-09-23T14:23:36.949Z</time>
      </trkpt>
      <trkpt lat="52.015220" lon="8.891113">
        <ele>115.960400</ele>
        <time>2024-09-23T14:24:07.084Z</time>
      </trkpt>
      <trkpt lat="52.014898" lon="8.890313">
        <ele>116.675876</ele>
        <time>2024-09-23T14:24:27.445Z</time>
      </trkpt>
      <trkpt lat="52.014882" lon="8.890169">
        <ele>116.817540</ele>
        <time>2024-09-23T14:24:30.721Z</time>
      </trkpt>
      <trkpt lat="52.014929" lon="8.889950">
        <ele>117.042079</ele>
        <time>2024-09-23T14:24:35.616Z</time>
      </trkpt>
      <trkpt lat="52.014484" lon="8.889632">
        <ele>117.806782</ele>
        <time>2024-09-23T14:24:52.717Z</time>
      </trkpt>
      <trkpt lat="52.014368" lon="8.889550">
        <ele>118.005774</ele>
        <time>2024-09-23T14:24:57.079Z</time>
      </trkpt>
      <trkpt lat="52.013952" lon="8.889250">
        <ele>118.721710</ele>
        <time>2024-09-23T14:25:12.488Z</time>
      </trkpt>
      <trkpt lat="52.013664" lon="8.889043">
        <ele>119.217086</ele>
        <time>2024-09-23T14:25:23.322Z</time>
      </trkpt>
      <trkpt lat="52.012279" lon="8.888038">
        <ele>121.150854</ele>
        <time>2024-09-23T14:26:12.870Z</time>
      </trkpt>
      <trkpt lat="52.011734" lon="8.887663">
        <ele>121.926769</ele>
        <time>2024-09-23T14:26:31.826Z</time>
      </trkpt>
      <trkpt lat="52.011435" lon="8.887446">
        <ele>122.380385</ele>
        <time>2024-09-23T14:26:42.644Z</time>
      </trkpt>
      <trkpt lat="52.010708" lon="8.886917">
        <ele>123.483807</ele>
        <time>2024-09-23T14:27:09.382Z</time>
      </trkpt>
      <trkpt lat="52.010312" lon="8.886635">
        <ele>124.082723</ele>
        <time>2024-09-23T14:27:23.969Z</time>
      </trkpt>
      <trkpt lat="52.010010" lon="8.886411">
        <ele>124.534439</ele>
        <time>2024-09-23T14:27:35.511Z</time>
      </trkpt>
      <trkpt lat="52.009774" lon="8.886245">
        <ele>124.884313</ele>
        <time>2024-09-23T14:27:44.603Z</time>
      </trkpt>
      <trkpt lat="52.009763" lon="8.886160">
        <ele>124.957050</ele>
        <time>2024-09-23T14:27:46.425Z</time>
      </trkpt>
      <trkpt lat="52.009597" lon="8.885983">
        <ele>125.227186</ele>
        <time>2024-09-23T14:27:53.120Z</time>
      </trkpt>
      <trkpt lat="52.008486" lon="8.885194">
        <ele>126.757351</ele>
        <time>2024-09-23T14:28:32.602Z</time>
      </trkpt>
      <trkpt lat="52.007535" lon="8.884509">
        <ele>127.681032</ele>
        <time>2024-09-23T14:29:04.108Z</time>
      </trkpt>
      <trkpt lat="52.006921" lon="8.884060">
        <ele>128.285841</ele>
        <time>2024-09-23T14:29:24.828Z</time>
      </trkpt>
      <trkpt lat="52.006531" lon="8.883775">
        <ele>128.683254</ele>
        <time>2024-09-23T14:29:37.766Z</time>
      </trkpt>
      <trkpt lat="52.005948" lon="8.883388">
        <ele>129.268528</ele>
        <time>2024-09-23T14:29:57.238Z</time>
      </trkpt>
      <trkpt lat="52.004997" lon="8.882718">
        <ele>130.557485</ele>
        <time>2024-09-23T14:30:30.627Z</time>
      </trkpt>
      <trkpt lat="52.004817" lon="8.882645">
        <ele>130.860356</ele>
        <time>2024-09-23T14:30:36.841Z</time>
      </trkpt>
      <trkpt lat="52.003678" lon="8.881815">
        <ele>132.957852</ele>
        <time>2024-09-23T14:31:20.784Z</time>
      </trkpt>
      <trkpt lat="52.003180" lon="8.881318">
        <ele>134.265925</ele>
        <time>2024-09-23T14:31:43.029Z</time>
      </trkpt>
      <trkpt lat="52.002858" lon="8.880823">
        <ele>135.258114</ele>
        <time>2024-09-23T14:31:59.433Z</time>
      </trkpt>
      <trkpt lat="52.002671" lon="8.880405">
        <ele>135.970028</ele>
        <time>2024-09-23T14:32:11.338Z</time>
      </trkpt>
      <trkpt lat="52.002616" lon="8.880256">
        <ele>136.209392</ele>
        <time>2024-09-23T14:32:15.403Z</time>
      </trkpt>
      <trkpt lat="52.002576" lon="8.880143">
        <ele>136.388983</ele>
        <time>2024-09-23T14:32:18.382Z</time>
      </trkpt>
      <trkpt lat="52.002496" lon="8.880044">
        <ele>136.614063</ele>
        <time>2024-09-23T14:32:22.285Z</time>
      </trkpt>
      <trkpt lat="52.002399" lon="8.879835">
        <ele>137.004619</ele>
        <time>2024-09-23T14:32:28.543Z</time>
      </trkpt>
      <trkpt lat="52.002314" lon="8.879618">
        <ele>137.409146</ele>
        <time>2024-09-23T14:32:34.568Z</time>
      </trkpt>
      <trkpt lat="52.002119" lon="8.879260">
        <ele>138.160965</ele>
        <time>2024-09-23T14:32:45.996Z</time>
      </trkpt>
      <trkpt lat="52.002081" lon="8.879296">
        <ele>138.273353</ele>
        <time>2024-09-23T14:32:47.704Z</time>
      </trkpt>
      <trkpt lat="52.001995" lon="8.879410">
        <ele>138.556941</ele>
        <time>2024-09-23T14:32:52.003Z</time>
      </trkpt>
      <trkpt lat="52.001944" lon="8.879593">
        <ele>138.872885</ele>
        <time>2024-09-23T14:32:56.838Z</time>
      </trkpt>
      <trkpt lat="52.001563" lon="8.881096">
        <ele>141.448025</ele>
        <time>2024-09-23T14:33:35.651Z</time>
      </trkpt>
      <trkpt lat="52.001486" lon="8.881356">
        <ele>142.020770</ele>
        <time>2024-09-23T14:33:42.885Z</time>
      </trkpt>
      <trkpt lat="52.001433" lon="8.881470">
        <ele>142.304353</ele>
        <time>2024-09-23T14:33:46.478Z</time>
      </trkpt>
      <trkpt lat="52.001400" lon="8.881540">
        <ele>142.479373</ele>
        <time>2024-09-23T14:33:48.701Z</time>
      </trkpt>
      <trkpt lat="52.001332" lon="8.881605">
        <ele>142.733788</ele>
        <time>2024-09-23T14:33:52.079Z</time>
      </trkpt>
      <trkpt lat="51.999377" lon="8.882461">
        <ele>148.552932</ele>
        <time>2024-09-23T14:35:19.098Z</time>
      </trkpt>
      <trkpt lat="51.998997" lon="8.882511">
        <ele>149.367693</ele>
        <time>2024-09-23T14:35:33.775Z</time>
      </trkpt>
      <trkpt lat="51.998335" lon="8.882430">
        <ele>150.786466</ele>
        <time>2024-09-23T14:35:56.222Z</time>
      </trkpt>
      <trkpt lat="51.998089" lon="8.882392">
        <ele>150.924288</ele>
        <time>2024-09-23T14:36:03.327Z</time>
      </trkpt>
      <trkpt lat="51.998090" lon="8.882267">
        <ele>150.883443</ele>
        <time>2024-09-23T14:36:05.570Z</time>
      </trkpt>
      <trkpt lat="51.997253" lon="8.882131">
        <ele>150.437048</ele>
        <time>2024-09-23T14:36:25.906Z</time>
      </trkpt>
      <trkpt lat="51.996312" lon="8.881978">
        <ele>150.028740</ele>
        <time>2024-09-23T14:36:47.253Z</time>
      </trkpt>
      <trkpt lat="51.996019" lon="8.881862">
        <ele>150.002103</ele>
        <time>2024-09-23T14:36:54.348Z</time>
      </trkpt>
      <trkpt lat="51.995665" lon="8.881775">
        <ele>149.970480</ele>
        <time>2024-09-23T14:37:03.263Z</time>
      </trkpt>
      <trkpt lat="51.995083" lon="8.881807">
        <ele>149.919045</ele>
        <time>2024-09-23T14:37:19.276Z</time>
      </trkpt>
      <trkpt lat="51.994525" lon="8.881794">
        <ele>150.231472</ele>
        <time>2024-09-23T14:37:36.775Z</time>
      </trkpt>
      <trkpt lat="51.994249" lon="8.881788">
        <ele>150.676156</ele>
        <time>2024-09-23T14:37:46.317Z</time>
      </trkpt>
      <trkpt lat="51.993412" lon="8.881521">
        <ele>152.050352</ele>
        <time>2024-09-23T14:38:16.421Z</time>
      </trkpt>
      <trkpt lat="51.992979" lon="8.881441">
        <ele>152.752427</ele>
        <time>2024-09-23T14:38:32.005Z</time>
      </trkpt>
      <trkpt lat="51.992185" lon="8.881260">
        <ele>154.123988</ele>
        <time>2024-09-23T14:39:00.536Z</time>
      </trkpt>
      <trkpt lat="51.992003" lon="8.881162">
        <ele>154.452505</ele>
        <time>2024-09-23T14:39:07.138Z</time>
      </trkpt>
      <trkpt lat="51.991937" lon="8.881235">
        <ele>154.589319</ele>
        <time>2024-09-23T14:39:09.986Z</time>
      </trkpt>
      <trkpt lat="51.991816" lon="8.881213">
        <ele>154.797925</ele>
        <time>2024-09-23T14:39:14.335Z</time>
      </trkpt>
      <trkpt lat="51.990862" lon="8.880915">
        <ele>156.461860</ele>
        <time>2024-09-23T14:39:47.232Z</time>
      </trkpt>
      <trkpt lat="51.989993" lon="8.880721">
        <ele>157.963398</ele>
        <time>2024-09-23T14:40:17.527Z</time>
      </trkpt>
      <trkpt lat="51.989863" lon="8.880695">
        <ele>158.187612</ele>
        <time>2024-09-23T14:40:22.217Z</time>
      </trkpt>
      <trkpt lat="51.989596" lon="8.880613">
        <ele>158.652762</ele>
        <time>2024-09-23T14:40:31.867Z</time>
      </trkpt>
      <trkpt lat="51.988819" lon="8.880701">
        <ele>160.247308</ele>
        <time>2024-09-23T14:41:00.112Z</time>
      </trkpt>
      <trkpt lat="51.988216" lon="8.880816">
        <ele>161.547867</ele>
        <time>2024-09-23T14:41:23.040Z</time>
      </trkpt>
      <trkpt lat="51.987200" lon="8.881144">
        <ele>163.855817</ele>
        <time>2024-09-23T14:42:01.753Z</time>
      </trkpt>
      <trkpt lat="51.986634" lon="8.881669">
        <ele>165.380577</ele>
        <time>2024-09-23T14:42:26.012Z</time>
      </trkpt>
      <trkpt lat="51.986524" lon="8.881770">
        <ele>165.676175</ele>
        <time>2024-09-23T14:42:30.913Z</time>
      </trkpt>
      <trkpt lat="51.986097" lon="8.882381">
        <ele>167.007593</ele>
        <time>2024-09-23T14:42:52.542Z</time>
      </trkpt>
      <trkpt lat="51.985303" lon="8.883396">
        <ele>169.828173</ele>
        <time>2024-09-23T14:43:33.094Z</time>
      </trkpt>
      <trkpt lat="51.985088" lon="8.883745">
        <ele>170.676722</ele>
        <time>2024-09-23T14:43:45.508Z</time>
      </trkpt>
      <trkpt lat="51.984651" lon="8.884694">
        <ele>172.669889</ele>
        <time>2024-09-23T14:44:15.451Z</time>
      </trkpt>
      <trkpt lat="51.984574" lon="8.884793">
        <ele>172.926556</ele>
        <time>2024-09-23T14:44:19.412Z</time>
      </trkpt>
      <trkpt lat="51.984028" lon="8.886082">
        <ele>175.444452</ele>
        <time>2024-09-23T14:44:56.967Z</time>
      </trkpt>
      <trkpt lat="51.983434" lon="8.887379">
        <ele>178.051869</ele>
        <time>2024-09-23T14:45:34.594Z</time>
      </trkpt>
      <trkpt lat="51.983383" lon="8.887387">
        <ele>178.186379</ele>
        <time>2024-09-23T14:45:36.553Z</time>
      </trkpt>
      <trkpt lat="51.983324" lon="8.887474">
        <ele>178.395610</ele>
        <time>2024-09-23T14:45:39.620Z</time>
      </trkpt>
      <trkpt lat="51.982637" lon="8.888975">
        <ele>181.419297</ele>
        <time>2024-09-23T14:46:25.235Z</time>
      </trkpt>
      <trkpt lat="51.982431" lon="8.889422">
        <ele>182.585524</ele>
        <time>2024-09-23T14:46:39.636Z</time>
      </trkpt>
      <trkpt lat="51.982382" lon="8.889634">
        <ele>183.062242</ele>
        <time>2024-09-23T14:46:45.548Z</time>
      </trkpt>
      <trkpt lat="51.982251" lon="8.889840">
        <ele>183.685624</ele>
        <time>2024-09-23T14:46:53.408Z</time>
      </trkpt>
      <trkpt lat="51.982098" lon="8.889995">
        <ele>184.302070</ele>
        <time>2024-09-23T14:47:01.138Z</time>
      </trkpt>
      <trkpt lat="51.980933" lon="8.891818">
        <ele>189.528866</ele>
        <time>2024-09-23T14:48:12.931Z</time>
      </trkpt>
      <trkpt lat="51.979631" lon="8.893807">
        <ele>193.090153</ele>
        <time>2024-09-23T14:49:22.791Z</time>
      </trkpt>
      <trkpt lat="51.979555" lon="8.893928">
        <ele>193.120001</ele>
        <time>2024-09-23T14:49:25.968Z</time>
      </trkpt>
      <trkpt lat="51.979555" lon="8.893981">
        <ele>193.129155</ele>
        <time>2024-09-23T14:49:26.919Z</time>
      </trkpt>
      <trkpt lat="51.979598" lon="8.894070">
        <ele>193.148691</ele>
        <time>2024-09-23T14:49:28.689Z</time>
      </trkpt>
      <trkpt lat="51.979668" lon="8.894187">
        <ele>193.176862</ele>
        <time>2024-09-23T14:49:31.515Z</time>
      </trkpt>
      <trkpt lat="51.979546" lon="8.894376">
        <ele>193.224147</ele>
        <time>2024-09-23T14:49:35.954Z</time>
      </trkpt>
      <trkpt lat="51.979127" lon="8.895014">
        <ele>193.385226</ele>
        <time>2024-09-23T14:49:48.916Z</time>
      </trkpt>
      <trkpt lat="51.979014" lon="8.895148">
        <ele>193.279080</ele>
        <time>2024-09-23T14:49:51.847Z</time>
      </trkpt>
      <trkpt lat="51.978850" lon="8.895342">
        <ele>192.529448</ele>
        <time>2024-09-23T14:49:55.935Z</time>
      </trkpt>
      <trkpt lat="51.978309" lon="8.895802">
        <ele>190.273317</ele>
        <time>2024-09-23T14:50:07.758Z</time>
      </trkpt>
      <trkpt lat="51.978103" lon="8.895934">
        <ele>189.455160</ele>
        <time>2024-09-23T14:50:11.929Z</time>
      </trkpt>
      <trkpt lat="51.977544" lon="8.896166">
        <ele>187.323635</ele>
        <time>2024-09-23T14:50:22.570Z</time>
      </trkpt>
      <trkpt lat="51.977104" lon="8.896214">
        <ele>185.386089</ele>
        <time>2024-09-23T14:50:30.596Z</time>
      </trkpt>
      <trkpt lat="51.976527" lon="8.896171">
        <ele>182.640090</ele>
        <time>2024-09-23T14:50:41.018Z</time>
      </trkpt>
      <trkpt lat="51.975990" lon="8.896080">
        <ele>180.073273</ele>
        <time>2024-09-23T14:50:50.898Z</time>
      </trkpt>
      <trkpt lat="51.975468" lon="8.896084">
        <ele>177.738495</ele>
        <time>2024-09-23T14:51:00.413Z</time>
      </trkpt>
      <trkpt lat="51.973832" lon="8.895901">
        <ele>171.768813</ele>
        <time>2024-09-23T14:51:31.824Z</time>
      </trkpt>
      <trkpt lat="51.973129" lon="8.895775">
        <ele>170.407102</ele>
        <time>2024-09-23T14:51:46.508Z</time>
      </trkpt>
      <trkpt lat="51.972870" lon="8.895781">
        <ele>169.925952</ele>
        <time>2024-09-23T14:51:52.049Z</time>
      </trkpt>
      <trkpt lat="51.971341" lon="8.895597">
        <ele>167.322639</ele>
        <time>2024-09-23T14:52:26.656Z</time>
      </trkpt>
      <trkpt lat="51.970246" lon="8.895761">
        <ele>165.679171</ele>
        <time>2024-09-23T14:52:50.619Z</time>
      </trkpt>
      <trkpt lat="51.970219" lon="8.895770">
        <ele>165.638509</ele>
        <time>2024-09-23T14:52:51.194Z</time>
      </trkpt>
      <trkpt lat="51.969886" lon="8.895876">
        <ele>165.202613</ele>
        <time>2024-09-23T14:52:58.430Z</time>
      </trkpt>
      <trkpt lat="51.968907" lon="8.896012">
        <ele>163.940460</ele>
        <time>2024-09-23T14:53:20.193Z</time>
      </trkpt>
      <trkpt lat="51.968803" lon="8.896059">
        <ele>163.801787</ele>
        <time>2024-09-23T14:53:22.574Z</time>
      </trkpt>
      <trkpt lat="51.968208" lon="8.895870">
        <ele>163.651864</ele>
        <time>2024-09-23T14:53:37.120Z</time>
      </trkpt>
      <trkpt lat="51.968104" lon="8.895812">
        <ele>163.798684</ele>
        <time>2024-09-23T14:53:39.703Z</time>
      </trkpt>
      <trkpt lat="51.968073" lon="8.896451">
        <ele>164.325930</ele>
        <time>2024-09-23T14:53:50.646Z</time>
      </trkpt>
      <trkpt lat="51.968064" lon="8.896530">
        <ele>164.392014</ele>
        <time>2024-09-23T14:53:52.287Z</time>
      </trkpt>
      <trkpt lat="51.967891" lon="8.898565">
        <ele>166.719705</ele>
        <time>2024-09-23T14:54:41.003Z</time>
      </trkpt>
      <trkpt lat="51.967293" lon="8.898437">
        <ele>168.996785</ele>
        <time>2024-09-23T14:55:09.042Z</time>
      </trkpt>
      <trkpt lat="51.965714" lon="8.898102">
        <ele>174.688671</ele>
        <time>2024-09-23T14:56:25.867Z</time>
      </trkpt>
      <trkpt lat="51.965566" lon="8.898041">
        <ele>175.190964</ele>
        <time>2024-09-23T14:56:32.612Z</time>
      </trkpt>
      <trkpt lat="51.965411" lon="8.897894">
        <ele>175.781497</ele>
        <time>2024-09-23T14:56:40.245Z</time>
      </trkpt>
      <trkpt lat="51.965277" lon="8.897668">
        <ele>176.417187</ele>
        <time>2024-09-23T14:56:48.409Z</time>
      </trkpt>
      <trkpt lat="51.964774" lon="8.896509">
        <ele>178.787802</ele>
        <time>2024-09-23T14:57:23.108Z</time>
      </trkpt>
      <trkpt lat="51.964595" lon="8.896189">
        <ele>179.146376</ele>
        <time>2024-09-23T14:57:32.949Z</time>
      </trkpt>
      <trkpt lat="51.964390" lon="8.896006">
        <ele>179.461408</ele>
        <time>2024-09-23T14:57:41.229Z</time>
      </trkpt>
      <trkpt lat="51.963649" lon="8.895516">
        <ele>180.538806</ele>
        <time>2024-09-23T14:58:08.188Z</time>
      </trkpt>
      <trkpt lat="51.963339" lon="8.895468">
        <ele>180.781801</ele>
        <time>2024-09-23T14:58:17.784Z</time>
      </trkpt>
      <trkpt lat="51.962372" lon="8.895760">
        <ele>179.693509</ele>
        <time>2024-09-23T14:58:43.208Z</time>
      </trkpt>
      <trkpt lat="51.962283" lon="8.895791">
        <ele>179.592793</ele>
        <time>2024-09-23T14:58:45.275Z</time>
      </trkpt>
      <trkpt lat="51.960904" lon="8.896356">
        <ele>176.705237</ele>
        <time>2024-09-23T14:59:15.475Z</time>
      </trkpt>
      <trkpt lat="51.960183" lon="8.896977">
        <ele>174.409503</ele>
        <time>2024-09-23T14:59:32.227Z</time>
      </trkpt>
      <trkpt lat="51.960165" lon="8.896480">
        <ele>173.593940</ele>
        <time>2024-09-23T14:59:38.330Z</time>
      </trkpt>
      <trkpt lat="51.960155" lon="8.895801">
        <ele>172.626149</ele>
        <time>2024-09-23T14:59:46.862Z</time>
      </trkpt>
      <trkpt lat="51.960150" lon="8.895528">
        <ele>172.236977</ele>
        <time>2024-09-23T14:59:50.364Z</time>
      </trkpt>
      <trkpt lat="51.960143" lon="8.894987">
        <ele>171.465930</ele>
        <time>2024-09-23T14:59:57.317Z</time>
      </trkpt>
      <trkpt lat="51.960140" lon="8.894942">
        <ele>171.401435</ele>
        <time>2024-09-23T14:59:57.909Z</time>
      </trkpt>
      <trkpt lat="51.960082" lon="8.893922">
        <ele>169.941849</ele>
        <time>2024-09-23T15:00:11.109Z</time>
      </trkpt>
      <trkpt lat="51.960091" lon="8.893324">
        <ele>169.277350</ele>
        <time>2024-09-23T15:00:18.876Z</time>
      </trkpt>
      <trkpt lat="51.960106" lon="8.893136">
        <ele>169.097222</ele>
        <time>2024-09-23T15:00:21.355Z</time>
      </trkpt>
      <trkpt lat="51.960139" lon="8.892565">
        <ele>168.552276</ele>
        <time>2024-09-23T15:00:28.875Z</time>
      </trkpt>
      <trkpt lat="51.960158" lon="8.892073">
        <ele>168.083861</ele>
        <time>2024-09-23T15:00:35.581Z</time>
      </trkpt>
      <trkpt lat="51.960163" lon="8.891920">
        <ele>167.938276</ele>
        <time>2024-09-23T15:00:37.749Z</time>
      </trkpt>
      <trkpt lat="51.960192" lon="8.891415">
        <ele>167.456347</ele>
        <time>2024-09-23T15:00:44.804Z</time>
      </trkpt>
      <trkpt lat="51.960225" lon="8.890819">
        <ele>166.887747</ele>
        <time>2024-09-23T15:00:53.217Z</time>
      </trkpt>
      <trkpt lat="51.960230" lon="8.890269">
        <ele>166.438371</ele>
        <time>2024-09-23T15:01:00.881Z</time>
      </trkpt>
      <trkpt lat="51.960195" lon="8.889914">
        <ele>166.145397</ele>
        <time>2024-09-23T15:01:05.958Z</time>
      </trkpt>
      <trkpt lat="51.960037" lon="8.889364">
        <ele>165.650881</ele>
        <time>2024-09-23T15:01:14.509Z</time>
      </trkpt>
      <trkpt lat="51.960023" lon="8.889313">
        <ele>165.605383</ele>
        <time>2024-09-23T15:01:15.274Z</time>
      </trkpt>
      <trkpt lat="51.959875" lon="8.888834">
        <ele>165.168716</ele>
        <time>2024-09-23T15:01:22.609Z</time>
      </trkpt>
      <trkpt lat="51.959795" lon="8.888569">
        <ele>164.928239</ele>
        <time>2024-09-23T15:01:26.591Z</time>
      </trkpt>
      <trkpt lat="51.959717" lon="8.888303">
        <ele>164.688178</ele>
        <time>2024-09-23T15:01:30.689Z</time>
      </trkpt>
      <trkpt lat="51.959612" lon="8.887958">
        <ele>164.255755</ele>
        <time>2024-09-23T15:01:36.078Z</time>
      </trkpt>
      <trkpt lat="51.959405" lon="8.887247">
        <ele>163.013296</ele>
        <time>2024-09-23T15:01:46.481Z</time>
      </trkpt>
      <trkpt lat="51.959778" lon="8.887083">
        <ele>162.022426</ele>
        <time>2024-09-23T15:01:54.307Z</time>
      </trkpt>
      <trkpt lat="51.959936" lon="8.887020">
        <ele>161.605258</ele>
        <time>2024-09-23T15:01:57.574Z</time>
      </trkpt>
      <trkpt lat="51.960064" lon="8.886969">
        <ele>161.267313</ele>
        <time>2024-09-23T15:02:00.142Z</time>
      </trkpt>
      <trkpt lat="51.960404" lon="8.886824">
        <ele>160.365937</ele>
        <time>2024-09-23T15:02:07.095Z</time>
      </trkpt>
      <trkpt lat="51.960681" lon="8.886697">
        <ele>159.516209</ele>
        <time>2024-09-23T15:02:12.667Z</time>
      </trkpt>
      <trkpt lat="51.961178" lon="8.886478">
        <ele>157.631774</ele>
        <time>2024-09-23T15:02:22.324Z</time>
      </trkpt>
      <trkpt lat="51.961202" lon="8.886468">
        <ele>157.541106</ele>
        <time>2024-09-23T15:02:22.792Z</time>
      </trkpt>
      <trkpt lat="51.961517" lon="8.886318">
        <ele>156.339884</ele>
        <time>2024-09-23T15:02:28.967Z</time>
      </trkpt>
      <trkpt lat="51.961427" lon="8.886110">
        <ele>155.766824</ele>
        <time>2024-09-23T15:02:31.950Z</time>
      </trkpt>
      <trkpt lat="51.961335" lon="8.885683">
        <ele>154.746896</ele>
        <time>2024-09-23T15:02:37.232Z</time>
      </trkpt>
      <trkpt lat="51.961355" lon="8.885603">
        <ele>154.552237</ele>
        <time>2024-09-23T15:02:38.220Z</time>
      </trkpt>
      <trkpt lat="51.961224" lon="8.884745">
        <ele>152.992031</ele>
        <time>2024-09-23T15:02:48.670Z</time>
      </trkpt>
      <trkpt lat="51.961206" lon="8.884645">
        <ele>152.892929</ele>
        <time>2024-09-23T15:02:49.925Z</time>
      </trkpt>
      <trkpt lat="51.961169" lon="8.884431">
        <ele>152.681497</ele>
        <time>2024-09-23T15:02:52.633Z</time>
      </trkpt>
      <trkpt lat="51.960572" lon="8.880887">
        <ele>149.990776</ele>
        <time>2024-09-23T15:03:46.088Z</time>
      </trkpt>
      <trkpt lat="51.960519" lon="8.880681">
        <ele>149.905428</ele>
        <time>2024-09-23T15:03:49.648Z</time>
      </trkpt>
      <trkpt lat="51.960447" lon="8.880601">
        <ele>149.851289</ele>
        <time>2024-09-23T15:03:52.047Z</time>
      </trkpt>
      <trkpt lat="51.960342" lon="8.880568">
        <ele>149.784931</ele>
        <time>2024-09-23T15:03:54.744Z</time>
      </trkpt>
      <trkpt lat="51.959880" lon="8.880522">
        <ele>149.497745</ele>
        <time>2024-09-23T15:04:06.180Z</time>
      </trkpt>
      <trkpt lat="51.959953" lon="8.880029">
        <ele>149.194176</ele>
        <time>2024-09-23T15:04:13.631Z</time>
      </trkpt>
      <trkpt lat="51.959953" lon="8.880027">
        <ele>149.192658</ele>
        <time>2024-09-23T15:04:13.658Z</time>
      </trkpt>
      <trkpt lat="51.960025" lon="8.879062">
        <ele>148.454927</ele>
        <time>2024-09-23T15:04:27.920Z</time>
      </trkpt>
      <trkpt lat="51.960004" lon="8.878405">
        <ele>147.955629</ele>
        <time>2024-09-23T15:04:37.123Z</time>
      </trkpt>
      <trkpt lat="51.959845" lon="8.877560">
        <ele>147.285087</ele>
        <time>2024-09-23T15:04:48.547Z</time>
      </trkpt>
      <trkpt lat="51.959839" lon="8.877513">
        <ele>147.248659</ele>
        <time>2024-09-23T15:04:49.209Z</time>
      </trkpt>
      <trkpt lat="51.959808" lon="8.877247">
        <ele>147.012624</ele>
        <time>2024-09-23T15:04:52.811Z</time>
      </trkpt>
      <trkpt lat="51.959797" lon="8.877013">
        <ele>146.799784</ele>
        <time>2024-09-23T15:04:55.825Z</time>
      </trkpt>
      <trkpt lat="51.959765" lon="8.876743">
        <ele>146.550423</ele>
        <time>2024-09-23T15:04:59.599Z</time>
      </trkpt>
      <trkpt lat="51.959738" lon="8.876428">
        <ele>146.261987</ele>
        <time>2024-09-23T15:05:03.873Z</time>
      </trkpt>
      <trkpt lat="51.959707" lon="8.876124">
        <ele>145.982529</ele>
        <time>2024-09-23T15:05:08.270Z</time>
      </trkpt>
      <trkpt lat="51.959613" lon="8.875300">
        <ele>145.222512</ele>
        <time>2024-09-23T15:05:19.771Z</time>
      </trkpt>
      <trkpt lat="51.959555" lon="8.874872">
        <ele>144.825066</ele>
        <time>2024-09-23T15:05:25.897Z</time>
      </trkpt>
      <trkpt lat="51.959494" lon="8.874372">
        <ele>144.346904</ele>
        <time>2024-09-23T15:05:32.990Z</time>
      </trkpt>
      <trkpt lat="51.959423" lon="8.873935">
        <ele>143.902748</ele>
        <time>2024-09-23T15:05:39.098Z</time>
      </trkpt>
      <trkpt lat="51.959389" lon="8.873704">
        <ele>143.669337</ele>
        <time>2024-09-23T15:05:42.338Z</time>
      </trkpt>
      <trkpt lat="51.959325" lon="8.873347">
        <ele>143.303934</ele>
        <time>2024-09-23T15:05:47.265Z</time>
      </trkpt>
      <trkpt lat="51.959276" lon="8.873053">
        <ele>143.004610</ele>
        <time>2024-09-23T15:05:51.381Z</time>
      </trkpt>
      <trkpt lat="51.959255" lon="8.872920">
        <ele>142.869676</ele>
        <time>2024-09-23T15:05:53.185Z</time>
      </trkpt>
      <trkpt lat="51.959200" lon="8.872431">
        <ele>142.381149</ele>
        <time>2024-09-23T15:05:59.913Z</time>
      </trkpt>
      <trkpt lat="51.959181" lon="8.872121">
        <ele>142.074979</ele>
        <time>2024-09-23T15:06:04.028Z</time>
      </trkpt>
      <trkpt lat="51.959148" lon="8.871511">
        <ele>141.428453</ele>
        <time>2024-09-23T15:06:12.095Z</time>
      </trkpt>
      <trkpt lat="51.959060" lon="8.870981">
        <ele>140.774680</ele>
        <time>2024-09-23T15:06:19.192Z</time>
      </trkpt>
      <trkpt lat="51.958828" lon="8.869432">
        <ele>138.876016</ele>
        <time>2024-09-23T15:06:40.030Z</time>
      </trkpt>
      <trkpt lat="51.958814" lon="8.869335">
        <ele>138.757356</ele>
        <time>2024-09-23T15:06:41.323Z</time>
      </trkpt>
      <trkpt lat="51.958560" lon="8.867996">
        <ele>137.241101</ele>
        <time>2024-09-23T15:06:59.658Z</time>
      </trkpt>
      <trkpt lat="51.958498" lon="8.867217">
        <ele>136.432991</ele>
        <time>2024-09-23T15:07:10.114Z</time>
      </trkpt>
      <trkpt lat="51.958414" lon="8.866159">
        <ele>135.335498</ele>
        <time>2024-09-23T15:07:24.736Z</time>
      </trkpt>
      <trkpt lat="51.958410" lon="8.866054">
        <ele>135.227265</ele>
        <time>2024-09-23T15:07:26.132Z</time>
      </trkpt>
      <trkpt lat="51.958247" lon="8.863961">
        <ele>133.653537</ele>
        <time>2024-09-23T15:07:55.343Z</time>
      </trkpt>
      <trkpt lat="51.958088" lon="8.863220">
        <ele>133.070544</ele>
        <time>2024-09-23T15:08:06.371Z</time>
      </trkpt>
      <trkpt lat="51.958045" lon="8.863127">
        <ele>133.007599</ele>
        <time>2024-09-23T15:08:08.026Z</time>
      </trkpt>
      <trkpt lat="51.957444" lon="8.860790">
        <ele>131.974667</ele>
        <time>2024-09-23T15:08:45.474Z</time>
      </trkpt>
      <trkpt lat="51.957359" lon="8.860459">
        <ele>131.846890</ele>
        <time>2024-09-23T15:08:50.949Z</time>
      </trkpt>
      <trkpt lat="51.957342" lon="8.860185">
        <ele>131.855368</ele>
        <time>2024-09-23T15:08:55.548Z</time>
      </trkpt>
      <trkpt lat="51.957330" lon="8.860004">
        <ele>131.860973</ele>
        <time>2024-09-23T15:08:58.267Z</time>
      </trkpt>
      <trkpt lat="51.957313" lon="8.859823">
        <ele>131.866610</ele>
        <time>2024-09-23T15:09:01.470Z</time>
      </trkpt>
      <trkpt lat="51.957242" lon="8.859713">
        <ele>131.871514</ele>
        <time>2024-09-23T15:09:04.185Z</time>
      </trkpt>
      <trkpt lat="51.957014" lon="8.859654">
        <ele>131.883049</ele>
        <time>2024-09-23T15:09:10.232Z</time>
      </trkpt>
      <trkpt lat="51.956823" lon="8.859549">
        <ele>131.893123</ele>
        <time>2024-09-23T15:09:15.904Z</time>
      </trkpt>
      <trkpt lat="51.956762" lon="8.859573">
        <ele>131.896259</ele>
        <time>2024-09-23T15:09:18.042Z</time>
      </trkpt>
      <trkpt lat="51.956597" lon="8.859332">
        <ele>131.907350</ele>
        <time>2024-09-23T15:09:26.454Z</time>
      </trkpt>
      <trkpt lat="51.956238" lon="8.858864">
        <ele>131.930356</ele>
        <time>2024-09-23T15:09:39.170Z</time>
      </trkpt>
      <trkpt lat="51.955644" lon="8.858279">
        <ele>131.921025</ele>
        <time>2024-09-23T15:09:57.863Z</time>
      </trkpt>
      <trkpt lat="51.955534" lon="8.858138">
        <ele>131.917614</ele>
        <time>2024-09-23T15:10:01.395Z</time>
      </trkpt>
      <trkpt lat="51.955499" lon="8.858015">
        <ele>131.915582</ele>
        <time>2024-09-23T15:10:03.594Z</time>
      </trkpt>
      <trkpt lat="51.955458" lon="8.858019">
        <ele>131.914583</ele>
        <time>2024-09-23T15:10:04.734Z</time>
      </trkpt>
      <trkpt lat="51.955408" lon="8.858025">
        <ele>131.913363</ele>
        <time>2024-09-23T15:10:06.169Z</time>
      </trkpt>
      <trkpt lat="51.955319" lon="8.857912">
        <ele>131.910613</ele>
        <time>2024-09-23T15:10:09.110Z</time>
      </trkpt>
      <trkpt lat="51.955247" lon="8.857826">
        <ele>131.908438</ele>
        <time>2024-09-23T15:10:11.401Z</time>
      </trkpt>
      <trkpt lat="51.955165" lon="8.857868">
        <ele>131.906345</ele>
        <time>2024-09-23T15:10:14.486Z</time>
      </trkpt>
      <trkpt lat="51.954901" lon="8.857679">
        <ele>131.899324</ele>
        <time>2024-09-23T15:10:24.501Z</time>
      </trkpt>
      <trkpt lat="51.954746" lon="8.857517">
        <ele>131.894838</ele>
        <time>2024-09-23T15:10:31.081Z</time>
      </trkpt>
      <trkpt lat="51.954346" lon="8.856921">
        <ele>131.994195</ele>
        <time>2024-09-23T15:10:49.601Z</time>
      </trkpt>
      <trkpt lat="51.953504" lon="8.855242">
        <ele>132.324923</ele>
        <time>2024-09-23T15:11:38.743Z</time>
      </trkpt>
      <trkpt lat="51.953407" lon="8.855050">
        <ele>132.288519</ele>
        <time>2024-09-23T15:11:44.598Z</time>
      </trkpt>
      <trkpt lat="51.953376" lon="8.854988">
        <ele>132.264824</ele>
        <time>2024-09-23T15:11:46.433Z</time>
      </trkpt>
      <trkpt lat="51.953377" lon="8.854893">
        <ele>132.236626</ele>
        <time>2024-09-23T15:11:48.691Z</time>
      </trkpt>
      <trkpt lat="51.953331" lon="8.854819">
        <ele>132.205432</ele>
        <time>2024-09-23T15:11:50.541Z</time>
      </trkpt>
      <trkpt lat="51.953271" lon="8.854721">
        <ele>132.164435</ele>
        <time>2024-09-23T15:11:52.845Z</time>
      </trkpt>
      <trkpt lat="51.953237" lon="8.854656">
        <ele>132.139133</ele>
        <time>2024-09-23T15:11:54.484Z</time>
      </trkpt>
      <trkpt lat="51.953144" lon="8.854643">
        <ele>132.094182</ele>
        <time>2024-09-23T15:11:57.938Z</time>
      </trkpt>
      <trkpt lat="51.952861" lon="8.854316">
        <ele>131.926877</ele>
        <time>2024-09-23T15:12:09.970Z</time>
      </trkpt>
      <trkpt lat="51.952441" lon="8.853942">
        <ele>131.696166</ele>
        <time>2024-09-23T15:12:25.533Z</time>
      </trkpt>
      <trkpt lat="51.952151" lon="8.853761">
        <ele>131.546539</ele>
        <time>2024-09-23T15:12:35.205Z</time>
      </trkpt>
      <trkpt lat="51.951871" lon="8.853647">
        <ele>131.118703</ele>
        <time>2024-09-23T15:12:43.849Z</time>
      </trkpt>
      <trkpt lat="51.951847" lon="8.853779">
        <ele>130.893296</ele>
        <time>2024-09-23T15:12:45.736Z</time>
      </trkpt>
      <trkpt lat="51.951400" lon="8.853714">
        <ele>129.700657</ele>
        <time>2024-09-23T15:12:55.395Z</time>
      </trkpt>
      <trkpt lat="51.950862" lon="8.853783">
        <ele>128.266493</ele>
        <time>2024-09-23T15:13:06.517Z</time>
      </trkpt>
      <trkpt lat="51.950539" lon="8.853905">
        <ele>127.385186</ele>
        <time>2024-09-23T15:13:13.251Z</time>
      </trkpt>
      <trkpt lat="51.950071" lon="8.854147">
        <ele>126.180120</ele>
        <time>2024-09-23T15:13:23.219Z</time>
      </trkpt>
      <trkpt lat="51.949866" lon="8.853178">
        <ele>124.777071</ele>
        <time>2024-09-23T15:13:37.678Z</time>
      </trkpt>
      <trkpt lat="51.949692" lon="8.852362">
        <ele>123.594561</ele>
        <time>2024-09-23T15:13:50.302Z</time>
      </trkpt>
      <trkpt lat="51.949576" lon="8.851806">
        <ele>122.790670</ele>
        <time>2024-09-23T15:13:58.680Z</time>
      </trkpt>
      <trkpt lat="51.949570" lon="8.851772">
        <ele>122.742236</ele>
        <time>2024-09-23T15:13:59.579Z</time>
      </trkpt>
      <trkpt lat="51.949325" lon="8.850560">
        <ele>122.374437</ele>
        <time>2024-09-23T15:14:31.863Z</time>
      </trkpt>
      <trkpt lat="51.949319" lon="8.850441">
        <ele>122.343586</ele>
        <time>2024-09-23T15:14:35.007Z</time>
      </trkpt>
      <trkpt lat="51.949266" lon="8.850403">
        <ele>122.319295</ele>
        <time>2024-09-23T15:14:36.494Z</time>
      </trkpt>
      <trkpt lat="51.949158" lon="8.850313">
        <ele>122.268396</ele>
        <time>2024-09-23T15:14:39.658Z</time>
      </trkpt>
      <trkpt lat="51.949127" lon="8.850294">
        <ele>122.254504</ele>
        <time>2024-09-23T15:14:40.560Z</time>
      </trkpt>
      <trkpt lat="51.948945" lon="8.850172">
        <ele>122.171950</ele>
        <time>2024-09-23T15:14:46.027Z</time>
      </trkpt>
      <trkpt lat="51.948783" lon="8.850029">
        <ele>122.094635</ele>
        <time>2024-09-23T15:14:51.240Z</time>
      </trkpt>
      <trkpt lat="51.948707" lon="8.849875">
        <ele>122.043659</ele>
        <time>2024-09-23T15:14:54.811Z</time>
      </trkpt>
      <trkpt lat="51.948659" lon="8.849732">
        <ele>122.001585</ele>
        <time>2024-09-23T15:14:57.690Z</time>
      </trkpt>
      <trkpt lat="51.948655" lon="8.849388">
        <ele>121.978388</ele>
        <time>2024-09-23T15:15:03.977Z</time>
      </trkpt>
      <trkpt lat="51.948722" lon="8.849103">
        <ele>122.081786</ele>
        <time>2024-09-23T15:15:09.443Z</time>
      </trkpt>
      <trkpt lat="51.948910" lon="8.848380">
        <ele>122.347785</ele>
        <time>2024-09-23T15:15:23.922Z</time>
      </trkpt>
      <trkpt lat="51.948997" lon="8.848061">
        <ele>122.466032</ele>
        <time>2024-09-23T15:15:30.422Z</time>
      </trkpt>
      <trkpt lat="51.949176" lon="8.847452">
        <ele>122.694741</ele>
        <time>2024-09-23T15:15:43.182Z</time>
      </trkpt>
      <trkpt lat="51.948369" lon="8.846585">
        <ele>123.340010</ele>
        <time>2024-09-23T15:16:13.156Z</time>
      </trkpt>
      <trkpt lat="51.948135" lon="8.846336">
        <ele>123.552497</ele>
        <time>2024-09-23T15:16:21.900Z</time>
      </trkpt>
      <trkpt lat="51.947869" lon="8.846054">
        <ele>123.793772</ele>
        <time>2024-09-23T15:16:31.566Z</time>
      </trkpt>
      <trkpt lat="51.947705" lon="8.845873">
        <ele>123.944382</ele>
        <time>2024-09-23T15:16:37.583Z</time>
      </trkpt>
      <trkpt lat="51.948046" lon="8.844651">
        <ele>124.413963</ele>
        <time>2024-09-23T15:17:01.901Z</time>
      </trkpt>
      <trkpt lat="51.948222" lon="8.843910">
        <ele>124.572684</ele>
        <time>2024-09-23T15:17:19.714Z</time>
      </trkpt>
      <trkpt lat="51.947833" lon="8.843636">
        <ele>124.710200</ele>
        <time>2024-09-23T15:17:34.999Z</time>
      </trkpt>
      <trkpt lat="51.947634" lon="8.843495">
        <ele>124.780616</ele>
        <time>2024-09-23T15:17:42.869Z</time>
      </trkpt>
      <trkpt lat="51.947226" lon="8.843246">
        <ele>124.938738</ele>
        <time>2024-09-23T15:18:02.594Z</time>
      </trkpt>
      <trkpt lat="51.946762" lon="8.842607">
        <ele>125.213609</ele>
        <time>2024-09-23T15:18:24.938Z</time>
      </trkpt>
      <trkpt lat="51.946844" lon="8.842380">
        <ele>125.286852</ele>
        <time>2024-09-23T15:18:29.649Z</time>
      </trkpt>
      <trkpt lat="51.946874" lon="8.842211">
        <ele>125.335810</ele>
        <time>2024-09-23T15:18:33.709Z</time>
      </trkpt>
      <trkpt lat="51.947195" lon="8.840345">
        <ele>126.026812</ele>
        <time>2024-09-23T15:19:08.797Z</time>
      </trkpt>
      <trkpt lat="51.947174" lon="8.840055">
        <ele>126.175285</ele>
        <time>2024-09-23T15:19:14.510Z</time>
      </trkpt>
      <trkpt lat="51.947377" lon="8.840098">
        <ele>126.344167</ele>
        <time>2024-09-23T15:19:22.709Z</time>
      </trkpt>
      <trkpt lat="51.947420" lon="8.839882">
        <ele>126.459583</ele>
        <time>2024-09-23T15:19:28.250Z</time>
      </trkpt>
      <trkpt lat="51.947055" lon="8.839798">
        <ele>126.763697</ele>
        <time>2024-09-23T15:19:39.611Z</time>
      </trkpt>
      <trkpt lat="51.946753" lon="8.839727">
        <ele>127.015428</ele>
        <time>2024-09-23T15:19:49.245Z</time>
      </trkpt>
      <trkpt lat="51.946750" lon="8.839727">
        <ele>127.017903</ele>
        <time>2024-09-23T15:19:49.357Z</time>
      </trkpt>
      <trkpt lat="51.946343" lon="8.839706">
        <ele>127.347680</ele>
        <time>2024-09-23T15:20:02.111Z</time>
      </trkpt>
      <trkpt lat="51.945863" lon="8.839682">
        <ele>127.730209</ele>
        <time>2024-09-23T15:20:16.761Z</time>
      </trkpt>
      <trkpt lat="51.945582" lon="8.839686">
        <ele>127.954050</ele>
        <time>2024-09-23T15:20:25.241Z</time>
      </trkpt>
      <trkpt lat="51.945445" lon="8.839609">
        <ele>128.069542</ele>
        <time>2024-09-23T15:20:29.894Z</time>
      </trkpt>
      <trkpt lat="51.945413" lon="8.839695">
        <ele>128.118865</ele>
        <time>2024-09-23T15:20:31.468Z</time>
      </trkpt>
      <trkpt lat="51.945350" lon="8.839591">
        <ele>128.190461</ele>
        <time>2024-09-23T15:20:35.118Z</time>
      </trkpt>
      <trkpt lat="51.945442" lon="8.839286">
        <ele>128.357187</ele>
        <time>2024-09-23T15:20:43.427Z</time>
      </trkpt>
      <trkpt lat="51.945495" lon="8.839070">
        <ele>128.471338</ele>
        <time>2024-09-23T15:20:48.808Z</time>
      </trkpt>
      <trkpt lat="51.945592" lon="8.838675">
        <ele>128.662195</ele>
        <time>2024-09-23T15:20:58.859Z</time>
      </trkpt>
      <trkpt lat="51.946035" lon="8.836917">
        <ele>129.362865</ele>
        <time>2024-09-23T15:21:43.047Z</time>
      </trkpt>
      <trkpt lat="51.946059" lon="8.836798">
        <ele>129.409057</ele>
        <time>2024-09-23T15:21:45.827Z</time>
      </trkpt>
      <trkpt lat="51.946191" lon="8.836039">
        <ele>129.701812</ele>
        <time>2024-09-23T15:22:04.321Z</time>
      </trkpt>
      <trkpt lat="51.946221" lon="8.835944">
        <ele>129.745813</ele>
        <time>2024-09-23T15:22:06.941Z</time>
      </trkpt>
      <trkpt lat="51.946262" lon="8.835790">
        <ele>129.814962</ele>
        <time>2024-09-23T15:22:10.006Z</time>
      </trkpt>
      <trkpt lat="51.946299" lon="8.835643">
        <ele>129.880415</ele>
        <time>2024-09-23T15:22:12.863Z</time>
      </trkpt>
      <trkpt lat="51.946313" lon="8.835584">
        <ele>129.906475</ele>
        <time>2024-09-23T15:22:14.361Z</time>
      </trkpt>
      <trkpt lat="51.946265" lon="8.835442">
        <ele>129.973234</ele>
        <time>2024-09-23T15:22:18.412Z</time>
      </trkpt>
      <trkpt lat="51.946266" lon="8.835378">
        <ele>129.999624</ele>
        <time>2024-09-23T15:22:19.932Z</time>
      </trkpt>
      <trkpt lat="51.946449" lon="8.834024">
        <ele>130.571021</ele>
        <time>2024-09-23T15:22:52.683Z</time>
      </trkpt>
      <trkpt lat="51.946558" lon="8.833214">
        <ele>130.917427</ele>
        <time>2024-09-23T15:23:12.084Z</time>
      </trkpt>
      <trkpt lat="51.946739" lon="8.831276">
        <ele>131.873413</ele>
        <time>2024-09-23T15:23:58.617Z</time>
      </trkpt>
      <trkpt lat="51.946869" lon="8.829753">
        <ele>132.742874</ele>
        <time>2024-09-23T15:24:36.551Z</time>
      </trkpt>
      <trkpt lat="51.946958" lon="8.828733">
        <ele>133.437414</ele>
        <time>2024-09-23T15:25:02.535Z</time>
      </trkpt>
      <trkpt lat="51.947043" lon="8.827721">
        <ele>134.126009</ele>
        <time>2024-09-23T15:25:27.946Z</time>
      </trkpt>
      <trkpt lat="51.947049" lon="8.827316">
        <ele>134.371181</ele>
        <time>2024-09-23T15:25:37.942Z</time>
      </trkpt>
      <trkpt lat="51.946995" lon="8.826434">
        <ele>134.830973</ele>
        <time>2024-09-23T15:25:59.433Z</time>
      </trkpt>
      <trkpt lat="51.946823" lon="8.825417">
        <ele>135.378044</ele>
        <time>2024-09-23T15:26:24.618Z</time>
      </trkpt>
      <trkpt lat="51.946609" lon="8.824681">
        <ele>135.794710</ele>
        <time>2024-09-23T15:26:44.242Z</time>
      </trkpt>
      <trkpt lat="51.946283" lon="8.823849">
        <ele>135.978986</ele>
        <time>2024-09-23T15:27:07.787Z</time>
      </trkpt>
      <trkpt lat="51.946171" lon="8.823566">
        <ele>136.041849</ele>
        <time>2024-09-23T15:27:15.736Z</time>
      </trkpt>
      <trkpt lat="51.946021" lon="8.823185">
        <ele>136.126352</ele>
        <time>2024-09-23T15:27:26.195Z</time>
      </trkpt>
      <trkpt lat="51.945858" lon="8.822776">
        <ele>136.217389</ele>
        <time>2024-09-23T15:27:37.014Z</time>
      </trkpt>
      <trkpt lat="51.945619" lon="8.822113">
        <ele>136.225078</ele>
        <time>2024-09-23T15:27:53.070Z</time>
      </trkpt>
      <trkpt lat="51.945502" lon="8.821704">
        <ele>135.830395</ele>
        <time>2024-09-23T15:28:01.924Z</time>
      </trkpt>
      <trkpt lat="51.945349" lon="8.820855">
        <ele>135.056130</ele>
        <time>2024-09-23T15:28:18.434Z</time>
      </trkpt>
      <trkpt lat="51.945187" lon="8.819693">
        <ele>134.013301</ele>
        <time>2024-09-23T15:28:39.825Z</time>
      </trkpt>
      <trkpt lat="51.945166" lon="8.818631">
        <ele>133.035162</ele>
        <time>2024-09-23T15:28:58.855Z</time>
      </trkpt>
      <trkpt lat="51.945169" lon="8.818425">
        <ele>132.842404</ele>
        <time>2024-09-23T15:29:02.617Z</time>
      </trkpt>
      <trkpt lat="51.945169" lon="8.818376">
        <ele>132.796567</ele>
        <time>2024-09-23T15:29:03.505Z</time>
      </trkpt>
      <trkpt lat="51.945187" lon="8.818175">
        <ele>132.606567</ele>
        <time>2024-09-23T15:29:07.155Z</time>
      </trkpt>
      <trkpt lat="51.945358" lon="8.816163">
        <ele>130.780206</ele>
        <time>2024-09-23T15:29:45.570Z</time>
      </trkpt>
      <trkpt lat="51.945476" lon="8.814866">
        <ele>129.814060</ele>
        <time>2024-09-23T15:30:10.097Z</time>
      </trkpt>
      <trkpt lat="51.945528" lon="8.814293">
        <ele>129.387252</ele>
        <time>2024-09-23T15:30:20.923Z</time>
      </trkpt>
      <trkpt lat="51.945566" lon="8.813842">
        <ele>129.051809</ele>
        <time>2024-09-23T15:30:29.539Z</time>
      </trkpt>
      <trkpt lat="51.945673" lon="8.812752">
        <ele>129.019393</ele>
        <time>2024-09-23T15:30:45.804Z</time>
      </trkpt>
      <trkpt lat="51.945704" lon="8.812063">
        <ele>129.108528</ele>
        <time>2024-09-23T15:30:56.916Z</time>
      </trkpt>
      <trkpt lat="51.945726" lon="8.811250">
        <ele>129.213527</ele>
        <time>2024-09-23T15:31:11.742Z</time>
      </trkpt>
      <trkpt lat="51.945711" lon="8.810326">
        <ele>129.829617</ele>
        <time>2024-09-23T15:31:31.084Z</time>
      </trkpt>
      <trkpt lat="51.945702" lon="8.810142">
        <ele>130.075562</ele>
        <time>2024-09-23T15:31:35.506Z</time>
      </trkpt>
      <trkpt lat="51.945684" lon="8.809747">
        <ele>130.603324</ele>
        <time>2024-09-23T15:31:44.586Z</time>
      </trkpt>
      <trkpt lat="51.945686" lon="8.809557">
        <ele>130.856530</ele>
        <time>2024-09-23T15:31:49.217Z</time>
      </trkpt>
      <trkpt lat="51.945627" lon="8.808433">
        <ele>132.359648</ele>
        <time>2024-09-23T15:32:15.858Z</time>
      </trkpt>
      <trkpt lat="51.945635" lon="8.808276">
        <ele>132.569559</ele>
        <time>2024-09-23T15:32:19.609Z</time>
      </trkpt>
      <trkpt lat="51.945496" lon="8.806889">
        <ele>134.395710</ele>
        <time>2024-09-23T15:32:52.514Z</time>
      </trkpt>
      <trkpt lat="51.945473" lon="8.806765">
        <ele>134.561993</ele>
        <time>2024-09-23T15:32:55.473Z</time>
      </trkpt>
      <trkpt lat="51.945452" lon="8.806512">
        <ele>134.889805</ele>
        <time>2024-09-23T15:33:01.367Z</time>
      </trkpt>
      <trkpt lat="51.945437" lon="8.806287">
        <ele>135.180415</ele>
        <time>2024-09-23T15:33:06.540Z</time>
      </trkpt>
      <trkpt lat="51.945409" lon="8.805915">
        <ele>135.661653</ele>
        <time>2024-09-23T15:33:15.027Z</time>
      </trkpt>
      <trkpt lat="51.945415" lon="8.805118">
        <ele>136.685168</ele>
        <time>2024-09-23T15:33:32.490Z</time>
      </trkpt>
      <trkpt lat="51.945419" lon="8.803669">
        <ele>138.007059</ele>
        <time>2024-09-23T15:34:02.937Z</time>
      </trkpt>
      <trkpt lat="51.945419" lon="8.803598">
        <ele>138.068118</ele>
        <time>2024-09-23T15:34:04.417Z</time>
      </trkpt>
      <trkpt lat="51.945435" lon="8.801766">
        <ele>139.628371</ele>
        <time>2024-09-23T15:34:50.890Z</time>
      </trkpt>
      <trkpt lat="51.945440" lon="8.799984">
        <ele>141.053525</ele>
        <time>2024-09-23T15:35:30.381Z</time>
      </trkpt>
      <trkpt lat="51.945441" lon="8.799762">
        <ele>141.231072</ele>
        <time>2024-09-23T15:35:34.842Z</time>
      </trkpt>
      <trkpt lat="51.945444" lon="8.799082">
        <ele>141.773591</ele>
        <time>2024-09-23T15:35:48.526Z</time>
      </trkpt>
      <trkpt lat="51.945447" lon="8.798080">
        <ele>142.514213</ele>
        <time>2024-09-23T15:36:08.681Z</time>
      </trkpt>
      <trkpt lat="51.945455" lon="8.796590">
        <ele>143.615567</ele>
        <time>2024-09-23T15:36:38.289Z</time>
      </trkpt>
      <trkpt lat="51.945451" lon="8.795644">
        <ele>144.438107</ele>
        <time>2024-09-23T15:36:57.346Z</time>
      </trkpt>
      <trkpt lat="51.945449" lon="8.795167">
        <ele>144.899214</ele>
        <time>2024-09-23T15:37:06.960Z</time>
      </trkpt>
      <trkpt lat="51.945450" lon="8.794818">
        <ele>145.236581</ele>
        <time>2024-09-23T15:37:14.111Z</time>
      </trkpt>
      <trkpt lat="51.945451" lon="8.794354">
        <ele>145.685113</ele>
        <time>2024-09-23T15:37:23.885Z</time>
      </trkpt>
      <trkpt lat="51.945452" lon="8.793905">
        <ele>146.119145</ele>
        <time>2024-09-23T15:37:33.678Z</time>
      </trkpt>
      <trkpt lat="51.945462" lon="8.793353">
        <ele>146.652970</ele>
        <time>2024-09-23T15:37:45.872Z</time>
      </trkpt>
      <trkpt lat="51.945459" lon="8.792612">
        <ele>147.144493</ele>
        <time>2024-09-23T15:38:02.829Z</time>
      </trkpt>
      <trkpt lat="51.945483" lon="8.791223">
        <ele>148.011771</ele>
        <time>2024-09-23T15:38:33.083Z</time>
      </trkpt>
      <trkpt lat="51.945548" lon="8.789753">
        <ele>147.609052</ele>
        <time>2024-09-23T15:38:55.044Z</time>
      </trkpt>
      <trkpt lat="51.945751" lon="8.790023">
        <ele>146.938756</ele>
        <time>2024-09-23T15:39:00.566Z</time>
      </trkpt>
      <trkpt lat="51.945975" lon="8.790298">
        <ele>146.221460</ele>
        <time>2024-09-23T15:39:06.427Z</time>
      </trkpt>
      <trkpt lat="51.946118" lon="8.790398">
        <ele>145.823834</ele>
        <time>2024-09-23T15:39:09.522Z</time>
      </trkpt>
      <trkpt lat="51.946346" lon="8.790487">
        <ele>145.225026</ele>
        <time>2024-09-23T15:39:14.034Z</time>
      </trkpt>
      <trkpt lat="51.946511" lon="8.790551">
        <ele>144.791828</ele>
        <time>2024-09-23T15:39:17.290Z</time>
      </trkpt>
      <trkpt lat="51.946751" lon="8.790629">
        <ele>144.166818</ele>
        <time>2024-09-23T15:39:21.840Z</time>
      </trkpt>
      <trkpt lat="51.946859" lon="8.790659">
        <ele>143.857030</ele>
        <time>2024-09-23T15:39:23.900Z</time>
      </trkpt>
      <trkpt lat="51.947081" lon="8.790726">
        <ele>143.053635</ele>
        <time>2024-09-23T15:39:27.998Z</time>
      </trkpt>
      <trkpt lat="51.947388" lon="8.790817">
        <ele>141.943290</ele>
        <time>2024-09-23T15:39:33.755Z</time>
      </trkpt>
      <trkpt lat="51.947738" lon="8.791002">
        <ele>140.633616</ele>
        <time>2024-09-23T15:39:40.622Z</time>
      </trkpt>
      <trkpt lat="51.947800" lon="8.791023">
        <ele>140.408273</ele>
        <time>2024-09-23T15:39:41.811Z</time>
      </trkpt>
      <trkpt lat="51.948407" lon="8.791668">
        <ele>137.826667</ele>
        <time>2024-09-23T15:39:56.253Z</time>
      </trkpt>
      <trkpt lat="51.948667" lon="8.791955">
        <ele>137.195221</ele>
        <time>2024-09-23T15:40:02.743Z</time>
      </trkpt>
      <trkpt lat="51.949006" lon="8.792196">
        <ele>136.628054</ele>
        <time>2024-09-23T15:40:10.510Z</time>
      </trkpt>
      <trkpt lat="51.949242" lon="8.792266">
        <ele>136.260414</ele>
        <time>2024-09-23T15:40:15.852Z</time>
      </trkpt>
      <trkpt lat="51.949360" lon="8.792679">
        <ele>135.830459</ele>
        <time>2024-09-23T15:40:22.140Z</time>
      </trkpt>
      <trkpt lat="51.949392" lon="8.792795">
        <ele>135.710423</ele>
        <time>2024-09-23T15:40:23.952Z</time>
      </trkpt>
      <trkpt lat="51.949445" lon="8.792761">
        <ele>135.623088</ele>
        <time>2024-09-23T15:40:25.244Z</time>
      </trkpt>
      <trkpt lat="51.949496" lon="8.792947">
        <ele>135.430811</ele>
        <time>2024-09-23T15:40:28.110Z</time>
      </trkpt>
      <trkpt lat="51.950258" lon="8.792841">
        <ele>134.521729</ele>
        <time>2024-09-23T15:40:47.065Z</time>
      </trkpt>
      <trkpt lat="51.950540" lon="8.792875">
        <ele>134.295941</ele>
        <time>2024-09-23T15:40:54.270Z</time>
      </trkpt>
      <trkpt lat="51.951223" lon="8.792958">
        <ele>133.749063</ele>
        <time>2024-09-23T15:41:11.385Z</time>
      </trkpt>
      <trkpt lat="51.951543" lon="8.792965">
        <ele>133.493531</ele>
        <time>2024-09-23T15:41:19.127Z</time>
      </trkpt>
      <trkpt lat="51.951937" lon="8.792961">
        <ele>133.240822</ele>
        <time>2024-09-23T15:41:28.836Z</time>
      </trkpt>
      <trkpt lat="51.952295" lon="8.792768">
        <ele>133.036375</ele>
        <time>2024-09-23T15:41:38.242Z</time>
      </trkpt>
      <trkpt lat="51.952488" lon="8.792681">
        <ele>132.927818</ele>
        <time>2024-09-23T15:41:43.323Z</time>
      </trkpt>
      <trkpt lat="51.952954" lon="8.792474">
        <ele>132.665977</ele>
        <time>2024-09-23T15:41:55.701Z</time>
      </trkpt>
      <trkpt lat="51.952936" lon="8.792329">
        <ele>132.616574</ele>
        <time>2024-09-23T15:41:58.085Z</time>
      </trkpt>
      <trkpt lat="51.952442" lon="8.790984">
        <ele>132.297113</ele>
        <time>2024-09-23T15:42:24.305Z</time>
      </trkpt>
      <trkpt lat="51.952358" lon="8.790826">
        <ele>132.274196</ele>
        <time>2024-09-23T15:42:27.899Z</time>
      </trkpt>
      <trkpt lat="51.951544" lon="8.789435">
        <ele>131.993726</ele>
        <time>2024-09-23T15:43:00.326Z</time>
      </trkpt>
      <trkpt lat="51.951494" lon="8.789171">
        <ele>131.797485</ele>
        <time>2024-09-23T15:43:04.721Z</time>
      </trkpt>
      <trkpt lat="51.951498" lon="8.788965">
        <ele>131.651040</ele>
        <time>2024-09-23T15:43:07.832Z</time>
      </trkpt>
      <trkpt lat="51.951634" lon="8.788616">
        <ele>131.357652</ele>
        <time>2024-09-23T15:43:14.147Z</time>
      </trkpt>
      <trkpt lat="51.951827" lon="8.788389">
        <ele>131.082837</ele>
        <time>2024-09-23T15:43:19.759Z</time>
      </trkpt>
      <trkpt lat="51.951949" lon="8.788298">
        <ele>130.928037</ele>
        <time>2024-09-23T15:43:22.899Z</time>
      </trkpt>
      <trkpt lat="51.951974" lon="8.788277">
        <ele>130.895582</ele>
        <time>2024-09-23T15:43:23.542Z</time>
      </trkpt>
      <trkpt lat="51.952147" lon="8.788037">
        <ele>130.633173</ele>
        <time>2024-09-23T15:43:28.682Z</time>
      </trkpt>
      <trkpt lat="51.952192" lon="8.787923">
        <ele>130.536982</ele>
        <time>2024-09-23T15:43:30.555Z</time>
      </trkpt>
      <trkpt lat="51.952619" lon="8.786858">
        <ele>129.544575</ele>
        <time>2024-09-23T15:43:48.335Z</time>
      </trkpt>
      <trkpt lat="51.952983" lon="8.785925">
        <ele>128.569076</ele>
        <time>2024-09-23T15:44:04.566Z</time>
      </trkpt>
      <trkpt lat="51.953204" lon="8.786048">
        <ele>128.234175</ele>
        <time>2024-09-23T15:44:09.879Z</time>
      </trkpt>
      <trkpt lat="51.953427" lon="8.786171">
        <ele>127.896561</ele>
        <time>2024-09-23T15:44:15.047Z</time>
      </trkpt>
      <trkpt lat="51.953919" lon="8.786511">
        <ele>126.962882</ele>
        <time>2024-09-23T15:44:26.732Z</time>
      </trkpt>
      <trkpt lat="51.954246" lon="8.786687">
        <ele>126.188742</ele>
        <time>2024-09-23T15:44:34.105Z</time>
      </trkpt>
      <trkpt lat="51.956183" lon="8.787928">
        <ele>122.408024</ele>
        <time>2024-09-23T15:45:16.419Z</time>
      </trkpt>
      <trkpt lat="51.956296" lon="8.787928">
        <ele>122.275905</ele>
        <time>2024-09-23T15:45:18.965Z</time>
      </trkpt>
      <trkpt lat="51.956489" lon="8.788022">
        <ele>122.040306</ele>
        <time>2024-09-23T15:45:23.641Z</time>
      </trkpt>
      <trkpt lat="51.956560" lon="8.788032">
        <ele>121.956982</ele>
        <time>2024-09-23T15:45:25.351Z</time>
      </trkpt>
      <trkpt lat="51.957005" lon="8.787800">
        <ele>121.410498</ele>
        <time>2024-09-23T15:45:39.366Z</time>
      </trkpt>
      <trkpt lat="51.957015" lon="8.787708">
        <ele>121.343188</ele>
        <time>2024-09-23T15:45:41.107Z</time>
      </trkpt>
      <trkpt lat="51.957343" lon="8.787061">
        <ele>121.850933</ele>
        <time>2024-09-23T15:45:57.943Z</time>
      </trkpt>
      <trkpt lat="51.957571" lon="8.786636">
        <ele>122.279853</ele>
        <time>2024-09-23T15:46:10.130Z</time>
      </trkpt>
      <trkpt lat="51.958021" lon="8.785792">
        <ele>123.129383</ele>
        <time>2024-09-23T15:46:34.215Z</time>
      </trkpt>
      <trkpt lat="51.958159" lon="8.785584">
        <ele>123.362028</ele>
        <time>2024-09-23T15:46:40.502Z</time>
      </trkpt>
      <trkpt lat="51.958212" lon="8.785549">
        <ele>123.432708</ele>
        <time>2024-09-23T15:46:42.459Z</time>
      </trkpt>
      <trkpt lat="51.958307" lon="8.785558">
        <ele>123.487769</ele>
        <time>2024-09-23T15:46:45.510Z</time>
      </trkpt>
      <trkpt lat="51.958604" lon="8.785691">
        <ele>123.378675</ele>
        <time>2024-09-23T15:46:55.032Z</time>
      </trkpt>
      <trkpt lat="51.960088" lon="8.786436">
        <ele>122.815723</ele>
        <time>2024-09-23T15:47:31.574Z</time>
      </trkpt>
      <trkpt lat="51.960889" lon="8.786839">
        <ele>122.412719</ele>
        <time>2024-09-23T15:47:51.246Z</time>
      </trkpt>
      <trkpt lat="51.962436" lon="8.788725">
        <ele>121.558540</ele>
        <time>2024-09-23T15:48:42.625Z</time>
      </trkpt>
      <trkpt lat="51.962652" lon="8.788922">
        <ele>121.456874</ele>
        <time>2024-09-23T15:48:48.815Z</time>
      </trkpt>
      <trkpt lat="51.963635" lon="8.789280">
        <ele>120.389432</ele>
        <time>2024-09-23T15:49:11.643Z</time>
      </trkpt>
      <trkpt lat="51.964183" lon="8.789371">
        <ele>119.488157</ele>
        <time>2024-09-23T15:49:23.360Z</time>
      </trkpt>
      <trkpt lat="51.964543" lon="8.789368">
        <ele>118.899146</ele>
        <time>2024-09-23T15:49:30.971Z</time>
      </trkpt>
      <trkpt lat="51.964852" lon="8.789282">
        <ele>118.386206</ele>
        <time>2024-09-23T15:49:37.676Z</time>
      </trkpt>
      <trkpt lat="51.965036" lon="8.789153">
        <ele>118.166010</ele>
        <time>2024-09-23T15:49:42.020Z</time>
      </trkpt>
      <trkpt lat="51.965320" lon="8.789089">
        <ele>117.890265</ele>
        <time>2024-09-23T15:49:48.283Z</time>
      </trkpt>
      <trkpt lat="51.965807" lon="8.789176">
        <ele>117.419085</ele>
        <time>2024-09-23T15:49:59.387Z</time>
      </trkpt>
      <trkpt lat="51.966291" lon="8.789381">
        <ele>116.938030</ele>
        <time>2024-09-23T15:50:11.245Z</time>
      </trkpt>
      <trkpt lat="51.966889" lon="8.789445">
        <ele>116.737301</ele>
        <time>2024-09-23T15:50:26.834Z</time>
      </trkpt>
      <trkpt lat="51.967122" lon="8.789281">
        <ele>116.895096</ele>
        <time>2024-09-23T15:50:34.210Z</time>
      </trkpt>
      <trkpt lat="51.967344" lon="8.789962">
        <ele>117.190027</ele>
        <time>2024-09-23T15:50:47.804Z</time>
      </trkpt>
      <trkpt lat="51.967427" lon="8.790428">
        <ele>117.375718</ele>
        <time>2024-09-23T15:50:57.109Z</time>
      </trkpt>
      <trkpt lat="51.967469" lon="8.790814">
        <ele>117.525766</ele>
        <time>2024-09-23T15:51:04.528Z</time>
      </trkpt>
      <trkpt lat="51.967511" lon="8.790804">
        <ele>117.552141</ele>
        <time>2024-09-23T15:51:07.472Z</time>
      </trkpt>
      <trkpt lat="51.967557" lon="8.790804">
        <ele>117.580721</ele>
        <time>2024-09-23T15:51:09.827Z</time>
      </trkpt>
      <trkpt lat="51.968597" lon="8.791944">
        <ele>118.931635</ele>
        <time>2024-09-23T15:52:13.807Z</time>
      </trkpt>
      <trkpt lat="51.968990" lon="8.792154">
        <ele>119.413555</ele>
        <time>2024-09-23T15:52:34.858Z</time>
      </trkpt>
      <trkpt lat="51.969230" lon="8.792332">
        <ele>119.720898</ele>
        <time>2024-09-23T15:52:47.729Z</time>
      </trkpt>
      <trkpt lat="51.969587" lon="8.792716">
        <ele>119.834694</ele>
        <time>2024-09-23T15:53:07.904Z</time>
      </trkpt>
      <trkpt lat="51.969788" lon="8.792808">
        <ele>119.853514</ele>
        <time>2024-09-23T15:53:17.403Z</time>
      </trkpt>
      <trkpt lat="51.970352" lon="8.792928">
        <ele>119.904776</ele>
        <time>2024-09-23T15:53:42.754Z</time>
      </trkpt>
      <trkpt lat="51.970929" lon="8.793142">
        <ele>119.958113</ele>
        <time>2024-09-23T15:54:08.454Z</time>
      </trkpt>
      <trkpt lat="51.971248" lon="8.793136">
        <ele>119.861937</ele>
        <time>2024-09-23T15:54:22.132Z</time>
      </trkpt>
      <trkpt lat="51.971562" lon="8.793047">
        <ele>119.730230</ele>
        <time>2024-09-23T15:54:35.735Z</time>
      </trkpt>
      <trkpt lat="51.971668" lon="8.792996">
        <ele>119.684548</ele>
        <time>2024-09-23T15:54:40.444Z</time>
      </trkpt>
      <trkpt lat="51.972616" lon="8.792538">
        <ele>119.275856</ele>
        <time>2024-09-23T15:55:22.020Z</time>
      </trkpt>
      <trkpt lat="51.972882" lon="8.792310">
        <ele>119.234914</ele>
        <time>2024-09-23T15:55:35.007Z</time>
      </trkpt>
      <trkpt lat="51.973148" lon="8.792029">
        <ele>119.260512</ele>
        <time>2024-09-23T15:55:48.983Z</time>
      </trkpt>
      <trkpt lat="51.973504" lon="8.791841">
        <ele>119.290707</ele>
        <time>2024-09-23T15:56:05.439Z</time>
      </trkpt>
      <trkpt lat="51.973877" lon="8.791700">
        <ele>119.321597</ele>
        <time>2024-09-23T15:56:23.022Z</time>
      </trkpt>
      <trkpt lat="51.974027" lon="8.791626">
        <ele>119.334241</ele>
        <time>2024-09-23T15:56:27.645Z</time>
      </trkpt>
      <trkpt lat="51.974919" lon="8.791435">
        <ele>119.278373</ele>
        <time>2024-09-23T15:56:53.578Z</time>
      </trkpt>
      <trkpt lat="51.975094" lon="8.790772">
        <ele>119.200380</ele>
        <time>2024-09-23T15:57:05.828Z</time>
      </trkpt>
      <trkpt lat="51.975337" lon="8.790426">
        <ele>119.143644</ele>
        <time>2024-09-23T15:57:14.198Z</time>
      </trkpt>
      <trkpt lat="51.975535" lon="8.790279">
        <ele>119.105426</ele>
        <time>2024-09-23T15:57:19.526Z</time>
      </trkpt>
      <trkpt lat="51.975809" lon="8.790154">
        <ele>119.055468</ele>
        <time>2024-09-23T15:57:26.182Z</time>
      </trkpt>
      <trkpt lat="51.975908" lon="8.790236">
        <ele>118.916118</ele>
        <time>2024-09-23T15:57:28.704Z</time>
      </trkpt>
      <trkpt lat="51.976014" lon="8.790268">
        <ele>118.742876</ele>
        <time>2024-09-23T15:57:31.159Z</time>
      </trkpt>
      <trkpt lat="51.976140" lon="8.790250">
        <ele>118.539635</ele>
        <time>2024-09-23T15:57:33.972Z</time>
      </trkpt>
      <trkpt lat="51.976587" lon="8.789914">
        <ele>117.748134</ele>
        <time>2024-09-23T15:57:44.477Z</time>
      </trkpt>
      <trkpt lat="51.977139" lon="8.789499">
        <ele>116.770680</ele>
        <time>2024-09-23T15:57:56.993Z</time>
      </trkpt>
      <trkpt lat="51.977478" lon="8.789377">
        <ele>116.212748</ele>
        <time>2024-09-23T15:58:04.534Z</time>
      </trkpt>
      <trkpt lat="51.977638" lon="8.789416">
        <ele>116.168916</ele>
        <time>2024-09-23T15:58:08.258Z</time>
      </trkpt>
      <trkpt lat="51.977739" lon="8.789554">
        <ele>116.177431</ele>
        <time>2024-09-23T15:58:11.456Z</time>
      </trkpt>
      <trkpt lat="51.977926" lon="8.790036">
        <ele>116.200061</ele>
        <time>2024-09-23T15:58:20.272Z</time>
      </trkpt>
      <trkpt lat="51.978025" lon="8.790207">
        <ele>116.209384</ele>
        <time>2024-09-23T15:58:23.973Z</time>
      </trkpt>
      <trkpt lat="51.978047" lon="8.790154">
        <ele>116.211923</ele>
        <time>2024-09-23T15:58:25.102Z</time>
      </trkpt>
      <trkpt lat="51.978127" lon="8.790025">
        <ele>116.219195</ele>
        <time>2024-09-23T15:58:28.350Z</time>
      </trkpt>
      <trkpt lat="51.978300" lon="8.789883">
        <ele>116.231698</ele>
        <time>2024-09-23T15:58:33.905Z</time>
      </trkpt>
      <trkpt lat="51.978946" lon="8.789563">
        <ele>116.275258</ele>
        <time>2024-09-23T15:58:55.128Z</time>
      </trkpt>
      <trkpt lat="51.979211" lon="8.789407">
        <ele>116.266221</ele>
        <time>2024-09-23T15:59:03.900Z</time>
      </trkpt>
      <trkpt lat="51.979922" lon="8.788848">
        <ele>116.234911</ele>
        <time>2024-09-23T15:59:27.260Z</time>
      </trkpt>
      <trkpt lat="51.980006" lon="8.788819">
        <ele>116.231507</ele>
        <time>2024-09-23T15:59:29.390Z</time>
      </trkpt>
      <trkpt lat="51.980217" lon="8.788638">
        <ele>116.222049</ele>
        <time>2024-09-23T15:59:35.280Z</time>
      </trkpt>
      <trkpt lat="51.980474" lon="8.788328">
        <ele>116.209360</ele>
        <time>2024-09-23T15:59:42.570Z</time>
      </trkpt>
      <trkpt lat="51.981660" lon="8.786894">
        <ele>114.585303</ele>
        <time>2024-09-23T16:00:14.652Z</time>
      </trkpt>
      <trkpt lat="51.981896" lon="8.786715">
        <ele>114.278668</ele>
        <time>2024-09-23T16:00:20.641Z</time>
      </trkpt>
      <trkpt lat="51.982581" lon="8.786382">
        <ele>114.727722</ele>
        <time>2024-09-23T16:00:40.062Z</time>
      </trkpt>
      <trkpt lat="51.983274" lon="8.785956">
        <ele>115.584931</ele>
        <time>2024-09-23T16:01:04.891Z</time>
      </trkpt>
      <trkpt lat="51.983754" lon="8.785721">
        <ele>116.164898</ele>
        <time>2024-09-23T16:01:23.956Z</time>
      </trkpt>
      <trkpt lat="51.984167" lon="8.785596">
        <ele>116.966416</ele>
        <time>2024-09-23T16:01:40.382Z</time>
      </trkpt>
      <trkpt lat="51.984915" lon="8.785051">
        <ele>118.535393</ele>
        <time>2024-09-23T16:02:10.510Z</time>
      </trkpt>
      <trkpt lat="51.985024" lon="8.784922">
        <ele>118.793517</ele>
        <time>2024-09-23T16:02:15.199Z</time>
      </trkpt>
      <trkpt lat="51.985362" lon="8.784627">
        <ele>119.527877</ele>
        <time>2024-09-23T16:02:28.143Z</time>
      </trkpt>
      <trkpt lat="51.985324" lon="8.784492">
        <ele>119.645838</ele>
        <time>2024-09-23T16:02:31.159Z</time>
      </trkpt>
      <trkpt lat="51.985785" lon="8.784077">
        <ele>120.030197</ele>
        <time>2024-09-23T16:02:47.748Z</time>
      </trkpt>
      <trkpt lat="51.985916" lon="8.783873">
        <ele>120.162550</ele>
        <time>2024-09-23T16:02:53.355Z</time>
      </trkpt>
      <trkpt lat="51.986048" lon="8.783173">
        <ele>120.491305</ele>
        <time>2024-09-23T16:03:06.683Z</time>
      </trkpt>
      <trkpt lat="51.986305" lon="8.782618">
        <ele>120.803132</ele>
        <time>2024-09-23T16:03:18.780Z</time>
      </trkpt>
      <trkpt lat="51.986639" lon="8.781784">
        <ele>120.746631</ele>
        <time>2024-09-23T16:03:36.279Z</time>
      </trkpt>
      <trkpt lat="51.987095" lon="8.780139">
        <ele>120.312188</ele>
        <time>2024-09-23T16:04:04.504Z</time>
      </trkpt>
      <trkpt lat="51.987292" lon="8.779596">
        <ele>119.823487</ele>
        <time>2024-09-23T16:04:13.203Z</time>
      </trkpt>
      <trkpt lat="51.987702" lon="8.779916">
        <ele>118.621488</ele>
        <time>2024-09-23T16:04:22.679Z</time>
      </trkpt>
      <trkpt lat="51.987887" lon="8.780032">
        <ele>118.097480</ele>
        <time>2024-09-23T16:04:26.741Z</time>
      </trkpt>
      <trkpt lat="51.988199" lon="8.780485">
        <ele>116.991585</ele>
        <time>2024-09-23T16:04:35.164Z</time>
      </trkpt>
      <trkpt lat="51.988340" lon="8.780392">
        <ele>116.589456</ele>
        <time>2024-09-23T16:04:38.075Z</time>
      </trkpt>
      <trkpt lat="51.988744" lon="8.780154">
        <ele>115.446207</ele>
        <time>2024-09-23T16:04:46.272Z</time>
      </trkpt>
      <trkpt lat="51.988966" lon="8.780023">
        <ele>114.437738</ele>
        <time>2024-09-23T16:04:50.742Z</time>
      </trkpt>
      <trkpt lat="51.989028" lon="8.779982">
        <ele>114.151921</ele>
        <time>2024-09-23T16:04:51.960Z</time>
      </trkpt>
      <trkpt lat="51.989143" lon="8.779914">
        <ele>113.629391</ele>
        <time>2024-09-23T16:04:54.287Z</time>
      </trkpt>
      <trkpt lat="51.989247" lon="8.779928">
        <ele>113.183840</ele>
        <time>2024-09-23T16:04:56.283Z</time>
      </trkpt>
      <trkpt lat="51.989633" lon="8.780130">
        <ele>111.452351</ele>
        <time>2024-09-23T16:05:03.794Z</time>
      </trkpt>
      <trkpt lat="51.990284" lon="8.780567">
        <ele>108.444799</ele>
        <time>2024-09-23T16:05:16.696Z</time>
      </trkpt>
      <trkpt lat="51.990662" lon="8.780954">
        <ele>106.739758</ele>
        <time>2024-09-23T16:05:24.981Z</time>
      </trkpt>
      <trkpt lat="51.990871" lon="8.781129">
        <ele>105.898667</ele>
        <time>2024-09-23T16:05:29.331Z</time>
      </trkpt>
      <trkpt lat="51.991723" lon="8.781700">
        <ele>102.601850</ele>
        <time>2024-09-23T16:05:46.969Z</time>
      </trkpt>
      <trkpt lat="51.992476" lon="8.782138">
        <ele>100.743923</ele>
        <time>2024-09-23T16:06:03.430Z</time>
      </trkpt>
      <trkpt lat="51.993257" lon="8.782580">
        <ele>99.625653</ele>
        <time>2024-09-23T16:06:22.336Z</time>
      </trkpt>
      <trkpt lat="51.993444" lon="8.782709">
        <ele>99.350946</ele>
        <time>2024-09-23T16:06:27.189Z</time>
      </trkpt>
      <trkpt lat="51.993560" lon="8.782836">
        <ele>99.161791</ele>
        <time>2024-09-23T16:06:30.593Z</time>
      </trkpt>
      <trkpt lat="51.993985" lon="8.782343">
        <ele>98.689750</ele>
        <time>2024-09-23T16:06:43.286Z</time>
      </trkpt>
      <trkpt lat="51.994140" lon="8.782161">
        <ele>98.561087</ele>
        <time>2024-09-23T16:06:47.970Z</time>
      </trkpt>
      <trkpt lat="51.994401" lon="8.781869">
        <ele>98.347889</ele>
        <time>2024-09-23T16:06:56.152Z</time>
      </trkpt>
      <trkpt lat="51.994713" lon="8.782595">
        <ele>97.981183</ele>
        <time>2024-09-23T16:07:09.534Z</time>
      </trkpt>
      <trkpt lat="51.994878" lon="8.782987">
        <ele>97.784507</ele>
        <time>2024-09-23T16:07:21.595Z</time>
      </trkpt>
      <trkpt lat="51.994903" lon="8.783049">
        <ele>97.753810</ele>
        <time>2024-09-23T16:07:23.066Z</time>
      </trkpt>
      <trkpt lat="51.994968" lon="8.783076">
        <ele>97.707929</ele>
        <time>2024-09-23T16:07:24.677Z</time>
      </trkpt>
      <trkpt lat="51.995328" lon="8.782583">
        <ele>97.311099</ele>
        <time>2024-09-23T16:07:39.286Z</time>
      </trkpt>
      <trkpt lat="51.995376" lon="8.782516">
        <ele>97.257762</ele>
        <time>2024-09-23T16:07:41.233Z</time>
      </trkpt>
      <trkpt lat="51.995463" lon="8.782445">
        <ele>97.175711</ele>
        <time>2024-09-23T16:07:44.218Z</time>
      </trkpt>
      <trkpt lat="51.995794" lon="8.781921">
        <ele>96.786185</ele>
        <time>2024-09-23T16:07:58.621Z</time>
      </trkpt>
      <trkpt lat="51.996143" lon="8.781323">
        <ele>96.358664</ele>
        <time>2024-09-23T16:08:12.302Z</time>
      </trkpt>
      <trkpt lat="51.996261" lon="8.781146">
        <ele>96.223302</ele>
        <time>2024-09-23T16:08:19.149Z</time>
      </trkpt>
      <trkpt lat="51.996405" lon="8.781016">
        <ele>96.153065</ele>
        <time>2024-09-23T16:08:26.082Z</time>
      </trkpt>
      <trkpt lat="51.996563" lon="8.780802">
        <ele>96.086414</ele>
        <time>2024-09-23T16:08:34.902Z</time>
      </trkpt>
      <trkpt lat="51.996682" lon="8.780587">
        <ele>96.028747</ele>
        <time>2024-09-23T16:08:42.472Z</time>
      </trkpt>
      <trkpt lat="51.996735" lon="8.780362">
        <ele>95.980694</ele>
        <time>2024-09-23T16:08:48.838Z</time>
      </trkpt>
      <trkpt lat="51.996789" lon="8.779970">
        <ele>95.900568</ele>
        <time>2024-09-23T16:08:59.340Z</time>
      </trkpt>
      <trkpt lat="51.996820" lon="8.779741">
        <ele>95.853799</ele>
        <time>2024-09-23T16:09:05.485Z</time>
      </trkpt>
      <trkpt lat="51.996892" lon="8.779514">
        <ele>95.802864</ele>
        <time>2024-09-23T16:09:12.254Z</time>
      </trkpt>
      <trkpt lat="51.997244" lon="8.778935">
        <ele>95.640559</ele>
        <time>2024-09-23T16:09:34.145Z</time>
      </trkpt>
      <trkpt lat="51.997435" lon="8.778667">
        <ele>95.509263</ele>
        <time>2024-09-23T16:09:45.632Z</time>
      </trkpt>
      <trkpt lat="51.997581" lon="8.778355">
        <ele>95.359952</ele>
        <time>2024-09-23T16:09:56.466Z</time>
      </trkpt>
      <trkpt lat="51.997704" lon="8.777964">
        <ele>95.192661</ele>
        <time>2024-09-23T16:10:08.234Z</time>
      </trkpt>
      <trkpt lat="51.997805" lon="8.777519">
        <ele>95.011961</ele>
        <time>2024-09-23T16:10:20.660Z</time>
      </trkpt>
      <trkpt lat="51.997835" lon="8.777215">
        <ele>94.894658</ele>
        <time>2024-09-23T16:10:28.546Z</time>
      </trkpt>
      <trkpt lat="51.997895" lon="8.776936">
        <ele>94.782060</ele>
        <time>2024-09-23T16:10:35.886Z</time>
      </trkpt>
      <trkpt lat="51.997980" lon="8.776732">
        <ele>94.688210</ele>
        <time>2024-09-23T16:10:42.003Z</time>
      </trkpt>
      <trkpt lat="51.998113" lon="8.776539">
        <ele>94.577843</ele>
        <time>2024-09-23T16:10:49.030Z</time>
      </trkpt>
      <trkpt lat="51.998317" lon="8.776389">
        <ele>94.396638</ele>
        <time>2024-09-23T16:10:57.882Z</time>
      </trkpt>
      <trkpt lat="51.998575" lon="8.776293">
        <ele>94.118172</ele>
        <time>2024-09-23T16:11:08.248Z</time>
      </trkpt>
      <trkpt lat="51.999133" lon="8.776285">
        <ele>93.531095</ele>
        <time>2024-09-23T16:11:30.418Z</time>
      </trkpt>
      <trkpt lat="51.999397" lon="8.776371">
        <ele>93.247818</ele>
        <time>2024-09-23T16:11:41.203Z</time>
      </trkpt>
      <trkpt lat="51.999642" lon="8.776467">
        <ele>92.982667</ele>
        <time>2024-09-23T16:11:51.374Z</time>
      </trkpt>
      <trkpt lat="51.999879" lon="8.776639">
        <ele>92.709570</ele>
        <time>2024-09-23T16:12:02.034Z</time>
      </trkpt>
      <trkpt lat="52.000124" lon="8.776896">
        <ele>92.626452</ele>
        <time>2024-09-23T16:12:14.230Z</time>
      </trkpt>
      <trkpt lat="52.000282" lon="8.777004">
        <ele>92.642790</ele>
        <time>2024-09-23T16:12:21.566Z</time>
      </trkpt>
      <trkpt lat="52.000441" lon="8.777068">
        <ele>92.658403</ele>
        <time>2024-09-23T16:12:28.715Z</time>
      </trkpt>
      <trkpt lat="52.000606" lon="8.777036">
        <ele>92.674241</ele>
        <time>2024-09-23T16:12:36.094Z</time>
      </trkpt>
      <trkpt lat="52.001471" lon="8.776285">
        <ele>92.767724</ele>
        <time>2024-09-23T16:13:21.967Z</time>
      </trkpt>
      <trkpt lat="52.001696" lon="8.776049">
        <ele>92.758113</ele>
        <time>2024-09-23T16:13:34.649Z</time>
      </trkpt>
      <trkpt lat="52.001927" lon="8.775748">
        <ele>92.715253</ele>
        <time>2024-09-23T16:13:48.524Z</time>
      </trkpt>
      <trkpt lat="52.002165" lon="8.775330">
        <ele>92.664524</ele>
        <time>2024-09-23T16:14:04.523Z</time>
      </trkpt>
      <trkpt lat="52.002376" lon="8.774847">
        <ele>92.611756</ele>
        <time>2024-09-23T16:14:20.413Z</time>
      </trkpt>
      <trkpt lat="52.002817" lon="8.773968">
        <ele>92.466562</ele>
        <time>2024-09-23T16:14:49.241Z</time>
      </trkpt>
      <trkpt lat="52.002931" lon="8.773667">
        <ele>92.266763</ele>
        <time>2024-09-23T16:14:58.123Z</time>
      </trkpt>
      <trkpt lat="52.003147" lon="8.773058">
        <ele>91.869403</ele>
        <time>2024-09-23T16:15:15.720Z</time>
      </trkpt>
      <trkpt lat="52.003182" lon="8.772768">
        <ele>91.702328</ele>
        <time>2024-09-23T16:15:22.986Z</time>
      </trkpt>
      <trkpt lat="52.003279" lon="8.772448">
        <ele>91.500671</ele>
        <time>2024-09-23T16:15:32.012Z</time>
      </trkpt>
      <trkpt lat="52.003189" lon="8.772369">
        <ele>91.406723</ele>
        <time>2024-09-23T16:15:36.161Z</time>
      </trkpt>
      <trkpt lat="52.003050" lon="8.772154">
        <ele>91.230456</ele>
        <time>2024-09-23T16:15:44.073Z</time>
      </trkpt>
      <trkpt lat="52.002924" lon="8.771886">
        <ele>91.039807</ele>
        <time>2024-09-23T16:15:52.452Z</time>
      </trkpt>
      <trkpt lat="52.002838" lon="8.771607">
        <ele>90.863468</ele>
        <time>2024-09-23T16:16:00.386Z</time>
      </trkpt>
      <trkpt lat="52.002858" lon="8.771382">
        <ele>90.737160</ele>
        <time>2024-09-23T16:16:05.988Z</time>
      </trkpt>
      <trkpt lat="52.002951" lon="8.771124">
        <ele>90.571048</ele>
        <time>2024-09-23T16:16:13.502Z</time>
      </trkpt>
      <trkpt lat="52.003024" lon="8.770981">
        <ele>90.467833</ele>
        <time>2024-09-23T16:16:18.116Z</time>
      </trkpt>
      <trkpt lat="52.003294" lon="8.770459">
        <ele>90.089027</ele>
        <time>2024-09-23T16:16:35.316Z</time>
      </trkpt>
      <trkpt lat="52.003502" lon="8.769807">
        <ele>89.681023</ele>
        <time>2024-09-23T16:16:54.040Z</time>
      </trkpt>
      <trkpt lat="52.003658" lon="8.769560">
        <ele>89.484414</ele>
        <time>2024-09-23T16:17:02.997Z</time>
      </trkpt>
      <trkpt lat="52.004529" lon="8.768831">
        <ele>88.438610</ele>
        <time>2024-09-23T16:17:42.329Z</time>
      </trkpt>
      <trkpt lat="52.004909" lon="8.768600">
        <ele>87.980562</ele>
        <time>2024-09-23T16:17:58.236Z</time>
      </trkpt>
      <trkpt lat="52.005731" lon="8.768174">
        <ele>87.190128</ele>
        <time>2024-09-23T16:18:32.739Z</time>
      </trkpt>
      <trkpt lat="52.005804" lon="8.768066">
        <ele>87.177620</ele>
        <time>2024-09-23T16:18:36.804Z</time>
      </trkpt>
      <trkpt lat="52.006167" lon="8.767144">
        <ele>87.092275</ele>
        <time>2024-09-23T16:19:05.925Z</time>
      </trkpt>
      <trkpt lat="52.006279" lon="8.766790">
        <ele>87.061238</ele>
        <time>2024-09-23T16:19:17.016Z</time>
      </trkpt>
      <trkpt lat="52.006431" lon="8.765963">
        <ele>86.993936</ele>
        <time>2024-09-23T16:19:41.795Z</time>
      </trkpt>
      <trkpt lat="52.006550" lon="8.765663">
        <ele>87.051929</ele>
        <time>2024-09-23T16:19:52.263Z</time>
      </trkpt>
      <trkpt lat="52.006702" lon="8.765481">
        <ele>87.133916</ele>
        <time>2024-09-23T16:20:01.344Z</time>
      </trkpt>
      <trkpt lat="52.006955" lon="8.765352">
        <ele>87.249049</ele>
        <time>2024-09-23T16:20:14.055Z</time>
      </trkpt>
      <trkpt lat="52.007019" lon="8.765320">
        <ele>87.278124</ele>
        <time>2024-09-23T16:20:17.337Z</time>
      </trkpt>
      <trkpt lat="52.007396" lon="8.764912">
        <ele>87.474809</ele>
        <time>2024-09-23T16:20:39.134Z</time>
      </trkpt>
      <trkpt lat="52.007561" lon="8.764784">
        <ele>87.554199</ele>
        <time>2024-09-23T16:20:47.719Z</time>
      </trkpt>
      <trkpt lat="52.007759" lon="8.764751">
        <ele>87.640620</ele>
        <time>2024-09-23T16:20:56.928Z</time>
      </trkpt>
      <trkpt lat="52.008904" lon="8.764775">
        <ele>87.502878</ele>
        <time>2024-09-23T16:21:46.355Z</time>
      </trkpt>
      <trkpt lat="52.010124" lon="8.764631">
        <ele>87.331196</ele>
        <time>2024-09-23T16:22:38.140Z</time>
      </trkpt>
      <trkpt lat="52.010328" lon="8.764730">
        <ele>87.421722</ele>
        <time>2024-09-23T16:22:47.719Z</time>
      </trkpt>
      <trkpt lat="52.010420" lon="8.764987">
        <ele>87.499530</ele>
        <time>2024-09-23T16:22:56.080Z</time>
      </trkpt>
      <trkpt lat="52.010275" lon="8.765846">
        <ele>87.732642</ele>
        <time>2024-09-23T16:23:21.462Z</time>
      </trkpt>
      <trkpt lat="52.010473" lon="8.765942">
        <ele>87.820499</ele>
        <time>2024-09-23T16:23:31.350Z</time>
      </trkpt>
      <trkpt lat="52.010900" lon="8.765871">
        <ele>88.079358</ele>
        <time>2024-09-23T16:23:52.166Z</time>
      </trkpt>
      <trkpt lat="52.012038" lon="8.765826">
        <ele>89.982275</ele>
        <time>2024-09-23T16:24:53.286Z</time>
      </trkpt>
      <trkpt lat="52.012395" lon="8.765889">
        <ele>90.582569</ele>
        <time>2024-09-23T16:25:12.439Z</time>
      </trkpt>
      <trkpt lat="52.012513" lon="8.765920">
        <ele>90.782387</ele>
        <time>2024-09-23T16:25:18.573Z</time>
      </trkpt>
      <trkpt lat="52.012299" lon="8.766232">
        <ele>91.204336</ele>
        <time>2024-09-23T16:25:28.582Z</time>
      </trkpt>
      <trkpt lat="52.012329" lon="8.766350">
        <ele>91.308092</ele>
        <time>2024-09-23T16:25:31.131Z</time>
      </trkpt>
      <trkpt lat="52.012489" lon="8.766997">
        <ele>91.874754</ele>
        <time>2024-09-23T16:25:45.944Z</time>
      </trkpt>
      <trkpt lat="52.012772" lon="8.768464">
        <ele>93.124147</ele>
        <time>2024-09-23T16:26:17.791Z</time>
      </trkpt>
      <trkpt lat="52.012823" lon="8.768732">
        <ele>93.352117</ele>
        <time>2024-09-23T16:26:22.974Z</time>
      </trkpt>
      <trkpt lat="52.012868" lon="8.768769">
        <ele>93.365923</ele>
        <time>2024-09-23T16:26:24.459Z</time>
      </trkpt>
      <trkpt lat="52.012887" lon="8.768844">
        <ele>93.373963</ele>
        <time>2024-09-23T16:26:25.908Z</time>
      </trkpt>
      <trkpt lat="52.013087" lon="8.768639">
        <ele>93.412048</ele>
        <time>2024-09-23T16:26:32.648Z</time>
      </trkpt>
      <trkpt lat="52.013973" lon="8.768021">
        <ele>93.567334</ele>
        <time>2024-09-23T16:26:58.659Z</time>
      </trkpt>
      <trkpt lat="52.015678" lon="8.766831">
        <ele>93.411578</ele>
        <time>2024-09-23T16:27:46.317Z</time>
      </trkpt>
      <trkpt lat="52.015827" lon="8.766836">
        <ele>93.385509</ele>
        <time>2024-09-23T16:27:50.076Z</time>
      </trkpt>
      <trkpt lat="52.015859" lon="8.767183">
        <ele>93.347736</ele>
        <time>2024-09-23T16:27:55.781Z</time>
      </trkpt>
      <trkpt lat="52.015930" lon="8.767992">
        <ele>93.490618</ele>
        <time>2024-09-23T16:28:09.083Z</time>
      </trkpt>
      <trkpt lat="52.015970" lon="8.769118">
        <ele>93.748581</ele>
        <time>2024-09-23T16:28:28.695Z</time>
      </trkpt>
      <trkpt lat="52.015976" lon="8.770742">
        <ele>94.220517</ele>
        <time>2024-09-23T16:28:58.889Z</time>
      </trkpt>
      <trkpt lat="52.015976" lon="8.770824">
        <ele>94.255251</ele>
        <time>2024-09-23T16:29:00.398Z</time>
      </trkpt>
      <trkpt lat="52.015981" lon="8.771352">
        <ele>94.478932</ele>
        <time>2024-09-23T16:29:10.378Z</time>
      </trkpt>
      <trkpt lat="52.015980" lon="8.771800">
        <ele>94.668701</ele>
        <time>2024-09-23T16:29:18.843Z</time>
      </trkpt>
      <trkpt lat="52.016376" lon="8.771791">
        <ele>94.941281</ele>
        <time>2024-09-23T16:29:30.726Z</time>
      </trkpt>
      <trkpt lat="52.017798" lon="8.772314">
        <ele>95.892054</ele>
        <time>2024-09-23T16:30:13.399Z</time>
      </trkpt>
      <trkpt lat="52.017918" lon="8.772297">
        <ele>95.968760</ele>
        <time>2024-09-23T16:30:16.883Z</time>
      </trkpt>
      <trkpt lat="52.018234" lon="8.772050">
        <ele>96.192059</ele>
        <time>2024-09-23T16:30:27.277Z</time>
      </trkpt>
      <trkpt lat="52.018055" lon="8.773021">
        <ele>96.782996</ele>
        <time>2024-09-23T16:30:46.414Z</time>
      </trkpt>
      <trkpt lat="52.018041" lon="8.773957">
        <ele>97.498489</ele>
        <time>2024-09-23T16:31:04.787Z</time>
      </trkpt>
      <trkpt lat="52.018052" lon="8.774922">
        <ele>98.236060</ele>
        <time>2024-09-23T16:31:24.411Z</time>
      </trkpt>
      <trkpt lat="52.018071" lon="8.776684">
        <ele>100.106160</ele>
        <time>2024-09-23T16:32:02.995Z</time>
      </trkpt>
      <trkpt lat="52.018104" lon="8.777098">
        <ele>100.598401</ele>
        <time>2024-09-23T16:32:12.644Z</time>
      </trkpt>
      <trkpt lat="52.018194" lon="8.777604">
        <ele>101.219462</ele>
        <time>2024-09-23T16:32:24.658Z</time>
      </trkpt>
      <trkpt lat="52.018297" lon="8.777929">
        <ele>101.650510</ele>
        <time>2024-09-23T16:32:32.858Z</time>
      </trkpt>
      <trkpt lat="52.018461" lon="8.778122">
        <ele>102.038488</ele>
        <time>2024-09-23T16:32:40.077Z</time>
      </trkpt>
      <trkpt lat="52.018964" lon="8.778407">
        <ele>102.572496</ele>
        <time>2024-09-23T16:32:58.459Z</time>
      </trkpt>
      <trkpt lat="52.019114" lon="8.778595">
        <ele>102.757766</ele>
        <time>2024-09-23T16:33:04.765Z</time>
      </trkpt>
      <trkpt lat="52.019247" lon="8.778848">
        <ele>102.958033</ele>
        <time>2024-09-23T16:33:11.451Z</time>
      </trkpt>
      <trkpt lat="52.019663" lon="8.779909">
        <ele>103.715208</ele>
        <time>2024-09-23T16:33:34.795Z</time>
      </trkpt>
      <trkpt lat="52.019785" lon="8.780064">
        <ele>103.796193</ele>
        <time>2024-09-23T16:33:39.014Z</time>
      </trkpt>
      <trkpt lat="52.021061" lon="8.781125">
        <ele>102.872698</ele>
        <time>2024-09-23T16:34:13.304Z</time>
      </trkpt>
      <trkpt lat="52.021197" lon="8.781183">
        <ele>102.782107</ele>
        <time>2024-09-23T16:34:16.541Z</time>
      </trkpt>
      <trkpt lat="52.021272" lon="8.781255">
        <ele>102.725983</ele>
        <time>2024-09-23T16:34:18.501Z</time>
      </trkpt>
      <trkpt lat="52.021508" lon="8.781672">
        <ele>102.416856</ele>
        <time>2024-09-23T16:34:26.394Z</time>
      </trkpt>
      <trkpt lat="52.021984" lon="8.783039">
        <ele>101.473170</ele>
        <time>2024-09-23T16:34:48.620Z</time>
      </trkpt>
      <trkpt lat="52.022561" lon="8.782477">
        <ele>100.874811</ele>
        <time>2024-09-23T16:35:04.501Z</time>
      </trkpt>
      <trkpt lat="52.022862" lon="8.782263">
        <ele>100.755955</ele>
        <time>2024-09-23T16:35:12.427Z</time>
      </trkpt>
      <trkpt lat="52.022885" lon="8.782328">
        <ele>100.739264</ele>
        <time>2024-09-23T16:35:13.672Z</time>
      </trkpt>
      <trkpt lat="52.022692" lon="8.782513">
        <ele>100.658203</ele>
        <time>2024-09-23T16:35:19.151Z</time>
      </trkpt>
      <trkpt lat="52.022885" lon="8.782328">
        <ele>100.577141</ele>
        <time>2024-09-23T16:35:24.887Z</time>
      </trkpt>
      <trkpt lat="52.022862" lon="8.782263">
        <ele>100.560450</ele>
        <time>2024-09-23T16:35:25.961Z</time>
      </trkpt>
      <trkpt lat="52.022991" lon="8.782146">
        <ele>100.507006</ele>
        <time>2024-09-23T16:35:29.837Z</time>
      </trkpt>
      <trkpt lat="52.023068" lon="8.782020">
        <ele>100.467476</ele>
        <time>2024-09-23T16:35:32.788Z</time>
      </trkpt>
      <trkpt lat="52.023497" lon="8.781603">
        <ele>100.286636</ele>
        <time>2024-09-23T16:35:46.025Z</time>
      </trkpt>
      <trkpt lat="52.024541" lon="8.780603">
        <ele>100.010940</ele>
        <time>2024-09-23T16:36:17.601Z</time>
      </trkpt>
      <trkpt lat="52.025016" lon="8.780138">
        <ele>99.889887</ele>
        <time>2024-09-23T16:36:31.653Z</time>
      </trkpt>
      <trkpt lat="52.025749" lon="8.779449">
        <ele>99.500316</ele>
        <time>2024-09-23T16:36:52.526Z</time>
      </trkpt>
      <trkpt lat="52.025784" lon="8.779483">
        <ele>99.480085</ele>
        <time>2024-09-23T16:36:53.520Z</time>
      </trkpt>
      <trkpt lat="52.026429" lon="8.778915">
        <ele>99.116104</ele>
        <time>2024-09-23T16:37:11.510Z</time>
      </trkpt>
      <trkpt lat="52.026598" lon="8.778676">
        <ele>99.004954</ele>
        <time>2024-09-23T16:37:17.135Z</time>
      </trkpt>
      <trkpt lat="52.027104" lon="8.778140">
        <ele>98.754310</ele>
        <time>2024-09-23T16:37:31.817Z</time>
      </trkpt>
      <trkpt lat="52.027799" lon="8.777474">
        <ele>98.427188</ele>
        <time>2024-09-23T16:37:52.059Z</time>
      </trkpt>
      <trkpt lat="52.028175" lon="8.777105">
        <ele>98.249102</ele>
        <time>2024-09-23T16:38:03.205Z</time>
      </trkpt>
      <trkpt lat="52.028245" lon="8.777037">
        <ele>98.219188</ele>
        <time>2024-09-23T16:38:05.406Z</time>
      </trkpt>
      <trkpt lat="52.028889" lon="8.776424">
        <ele>97.950442</ele>
        <time>2024-09-23T16:38:24.400Z</time>
      </trkpt>
      <trkpt lat="52.028977" lon="8.776333">
        <ele>97.912883</ele>
        <time>2024-09-23T16:38:26.992Z</time>
      </trkpt>
      <trkpt lat="52.029026" lon="8.776161">
        <ele>97.870889</ele>
        <time>2024-09-23T16:38:29.810Z</time>
      </trkpt>
      <trkpt lat="52.029092" lon="8.776101">
        <ele>97.843658</ele>
        <time>2024-09-23T16:38:31.709Z</time>
      </trkpt>
      <trkpt lat="52.029152" lon="8.776322">
        <ele>97.790139</ele>
        <time>2024-09-23T16:38:35.340Z</time>
      </trkpt>
      <trkpt lat="52.030915" lon="8.774617">
        <ele>97.019504</ele>
        <time>2024-09-23T16:39:26.571Z</time>
      </trkpt>
      <trkpt lat="52.031950" lon="8.773632">
        <ele>96.699646</ele>
        <time>2024-09-23T16:39:57.238Z</time>
      </trkpt>
      <trkpt lat="52.033415" lon="8.772220">
        <ele>96.196902</ele>
        <time>2024-09-23T16:40:41.673Z</time>
      </trkpt>
      <trkpt lat="52.035825" lon="8.769908">
        <ele>94.883489</ele>
        <time>2024-09-23T16:41:49.875Z</time>
      </trkpt>
      <trkpt lat="52.036055" lon="8.769690">
        <ele>94.850551</ele>
        <time>2024-09-23T16:41:56.619Z</time>
      </trkpt>
      <trkpt lat="52.036185" lon="8.769562">
        <ele>94.831748</ele>
        <time>2024-09-23T16:42:00.531Z</time>
      </trkpt>
      <trkpt lat="52.036260" lon="8.769491">
        <ele>94.821010</ele>
        <time>2024-09-23T16:42:02.820Z</time>
      </trkpt>
      <trkpt lat="52.036742" lon="8.769020">
        <ele>94.751435</ele>
        <time>2024-09-23T16:42:17.535Z</time>
      </trkpt>
      <trkpt lat="52.037533" lon="8.768234">
        <ele>94.557490</ele>
        <time>2024-09-23T16:42:42.968Z</time>
      </trkpt>
      <trkpt lat="52.038657" lon="8.766434">
        <ele>93.783376</ele>
        <time>2024-09-23T16:43:21.969Z</time>
      </trkpt>
      <trkpt lat="52.038727" lon="8.766354">
        <ele>93.644736</ele>
        <time>2024-09-23T16:43:23.880Z</time>
      </trkpt>
      <trkpt lat="52.038879" lon="8.766299">
        <ele>93.381805</ele>
        <time>2024-09-23T16:43:27.386Z</time>
      </trkpt>
      <trkpt lat="52.039468" lon="8.766535">
        <ele>92.357523</ele>
        <time>2024-09-23T16:43:40.535Z</time>
      </trkpt>
      <trkpt lat="52.043363" lon="8.769507">
        <ele>85.135188</ele>
        <time>2024-09-23T16:45:12.859Z</time>
      </trkpt>
      <trkpt lat="52.044107" lon="8.770034">
        <ele>84.245332</ele>
        <time>2024-09-23T16:45:31.261Z</time>
      </trkpt>
      <trkpt lat="52.045804" lon="8.771236">
        <ele>82.726132</ele>
        <time>2024-09-23T16:46:15.932Z</time>
      </trkpt>
      <trkpt lat="52.045980" lon="8.771364">
        <ele>82.577271</ele>
        <time>2024-09-23T16:46:20.775Z</time>
      </trkpt>
      <trkpt lat="52.047242" lon="8.772283">
        <ele>81.464031</ele>
        <time>2024-09-23T16:46:53.280Z</time>
      </trkpt>
      <trkpt lat="52.047436" lon="8.771874">
        <ele>81.181679</ele>
        <time>2024-09-23T16:47:00.545Z</time>
      </trkpt>
      <trkpt lat="52.047547" lon="8.771680">
        <ele>81.036831</ele>
        <time>2024-09-23T16:47:04.708Z</time>
      </trkpt>
      <trkpt lat="52.047807" lon="8.771325">
        <ele>80.735059</ele>
        <time>2024-09-23T16:47:13.522Z</time>
      </trkpt>
      <trkpt lat="52.048544" lon="8.770628">
        <ele>80.266567</ele>
        <time>2024-09-23T16:47:36.154Z</time>
      </trkpt>
      <trkpt lat="52.048690" lon="8.769803">
        <ele>80.374330</ele>
        <time>2024-09-23T16:47:51.671Z</time>
      </trkpt>
      <trkpt lat="52.048921" lon="8.769273">
        <ele>80.455874</ele>
        <time>2024-09-23T16:48:04.581Z</time>
      </trkpt>
      <trkpt lat="52.049570" lon="8.767782">
        <ele>80.819150</ele>
        <time>2024-09-23T16:48:42.156Z</time>
      </trkpt>
      <trkpt lat="52.049625" lon="8.767099">
        <ele>81.015411</ele>
        <time>2024-09-23T16:48:56.015Z</time>
      </trkpt>
      <trkpt lat="52.049619" lon="8.766740">
        <ele>81.117735</ele>
        <time>2024-09-23T16:49:02.960Z</time>
      </trkpt>
      <trkpt lat="52.049627" lon="8.766373">
        <ele>81.222366</ele>
        <time>2024-09-23T16:49:10.077Z</time>
      </trkpt>
      <trkpt lat="52.049662" lon="8.766292">
        <ele>81.250571</ele>
        <time>2024-09-23T16:49:11.910Z</time>
      </trkpt>
      <trkpt lat="52.049745" lon="8.766200">
        <ele>81.297109</ele>
        <time>2024-09-23T16:49:14.995Z</time>
      </trkpt>
      <trkpt lat="52.050060" lon="8.765919">
        <ele>81.403990</ele>
        <time>2024-09-23T16:49:25.849Z</time>
      </trkpt>
      <trkpt lat="52.050187" lon="8.765780">
        <ele>81.391400</ele>
        <time>2024-09-23T16:49:30.010Z</time>
      </trkpt>
      <trkpt lat="52.050426" lon="8.765509">
        <ele>81.367437</ele>
        <time>2024-09-23T16:49:37.634Z</time>
      </trkpt>
      <trkpt lat="52.050668" lon="8.765268">
        <ele>81.344098</ele>
        <time>2024-09-23T16:49:45.008Z</time>
      </trkpt>
      <trkpt lat="52.051582" lon="8.765160">
        <ele>81.268731</ele>
        <time>2024-09-23T16:50:09.091Z</time>
      </trkpt>
      <trkpt lat="52.051973" lon="8.765114">
        <ele>81.025179</ele>
        <time>2024-09-23T16:50:19.136Z</time>
      </trkpt>
      <trkpt lat="52.052268" lon="8.765023">
        <ele>80.817757</ele>
        <time>2024-09-23T16:50:26.745Z</time>
      </trkpt>
      <trkpt lat="52.052491" lon="8.766835">
        <ele>80.032747</ele>
        <time>2024-09-23T16:50:53.647Z</time>
      </trkpt>
      <trkpt lat="52.052664" lon="8.768967">
        <ele>78.277577</ele>
        <time>2024-09-23T16:51:22.531Z</time>
      </trkpt>
      <trkpt lat="52.052712" lon="8.770329">
        <ele>77.442689</ele>
        <time>2024-09-23T16:51:41.668Z</time>
      </trkpt>
      <trkpt lat="52.052709" lon="8.770726">
        <ele>77.316612</ele>
        <time>2024-09-23T16:51:47.502Z</time>
      </trkpt>
      <trkpt lat="52.052702" lon="8.771449">
        <ele>77.086994</ele>
        <time>2024-09-23T16:51:58.100Z</time>
      </trkpt>
      <trkpt lat="52.052685" lon="8.771885">
        <ele>76.948264</ele>
        <time>2024-09-23T16:52:04.873Z</time>
      </trkpt>
      <trkpt lat="52.052646" lon="8.772529">
        <ele>76.742772</ele>
        <time>2024-09-23T16:52:15.380Z</time>
      </trkpt>
      <trkpt lat="52.052582" lon="8.772703">
        <ele>76.704611</ele>
        <time>2024-09-23T16:52:18.761Z</time>
      </trkpt>
      <trkpt lat="52.052382" lon="8.773496">
        <ele>76.903720</ele>
        <time>2024-09-23T16:52:34.107Z</time>
      </trkpt>
      <trkpt lat="52.052363" lon="8.773977">
        <ele>77.015689</ele>
        <time>2024-09-23T16:52:42.967Z</time>
      </trkpt>
      <trkpt lat="52.052201" lon="8.775162">
        <ele>77.297691</ele>
        <time>2024-09-23T16:53:04.454Z</time>
      </trkpt>
      <trkpt lat="52.052106" lon="8.775691">
        <ele>77.388925</ele>
        <time>2024-09-23T16:53:13.916Z</time>
      </trkpt>
      <trkpt lat="52.051879" lon="8.776755">
        <ele>77.467956</ele>
        <time>2024-09-23T16:53:33.221Z</time>
      </trkpt>
      <trkpt lat="52.051497" lon="8.778173">
        <ele>77.576593</ele>
        <time>2024-09-23T16:53:58.572Z</time>
      </trkpt>
      <trkpt lat="52.050985" lon="8.779696">
        <ele>77.711772</ele>
        <time>2024-09-23T16:54:26.626Z</time>
      </trkpt>
      <trkpt lat="52.050477" lon="8.781047">
        <ele>78.030901</ele>
        <time>2024-09-23T16:54:54.217Z</time>
      </trkpt>
      <trkpt lat="52.050107" lon="8.781951">
        <ele>78.688537</ele>
        <time>2024-09-23T16:55:14.842Z</time>
      </trkpt>
      <trkpt lat="52.049879" lon="8.782584">
        <ele>79.132803</ele>
        <time>2024-09-23T16:55:29.303Z</time>
      </trkpt>
      <trkpt lat="52.049731" lon="8.783099">
        <ele>79.477067</ele>
        <time>2024-09-23T16:55:40.860Z</time>
      </trkpt>
      <trkpt lat="52.049605" lon="8.783397">
        <ele>79.792592</ele>
        <time>2024-09-23T16:55:48.201Z</time>
      </trkpt>
      <trkpt lat="52.049580" lon="8.783484">
        <ele>79.898127</ele>
        <time>2024-09-23T16:55:50.234Z</time>
      </trkpt>
      <trkpt lat="52.049303" lon="8.783988">
        <ele>80.640978</ele>
        <time>2024-09-23T16:56:04.521Z</time>
      </trkpt>
      <trkpt lat="52.049269" lon="8.784150">
        <ele>80.829098</ele>
        <time>2024-09-23T16:56:08.175Z</time>
      </trkpt>
      <trkpt lat="52.049293" lon="8.784281">
        <ele>80.979319</ele>
        <time>2024-09-23T16:56:11.218Z</time>
      </trkpt>
      <trkpt lat="52.049308" lon="8.784305">
        <ele>81.016925</ele>
        <time>2024-09-23T16:56:12.040Z</time>
      </trkpt>
      <trkpt lat="52.049445" lon="8.784454">
        <ele>81.311463</ele>
        <time>2024-09-23T16:56:18.013Z</time>
      </trkpt>
      <trkpt lat="52.049535" lon="8.784535">
        <ele>81.495287</ele>
        <time>2024-09-23T16:56:21.714Z</time>
      </trkpt>
      <trkpt lat="52.049795" lon="8.784768">
        <ele>82.025804</ele>
        <time>2024-09-23T16:56:32.865Z</time>
      </trkpt>
      <trkpt lat="52.050099" lon="8.784877">
        <ele>82.582112</ele>
        <time>2024-09-23T16:56:44.341Z</time>
      </trkpt>
      <trkpt lat="52.050068" lon="8.785497">
        <ele>83.166981</ele>
        <time>2024-09-23T16:56:57.708Z</time>
      </trkpt>
      <trkpt lat="52.050064" lon="8.785576">
        <ele>83.235941</ele>
        <time>2024-09-23T16:56:59.365Z</time>
      </trkpt>
      <trkpt lat="52.050291" lon="8.786863">
        <ele>84.400740</ele>
        <time>2024-09-23T16:57:26.804Z</time>
      </trkpt>
      <trkpt lat="52.050785" lon="8.786737">
        <ele>85.108126</ele>
        <time>2024-09-23T16:57:43.131Z</time>
      </trkpt>
      <trkpt lat="52.050925" lon="8.786816">
        <ele>85.317765</ele>
        <time>2024-09-23T16:57:48.187Z</time>
      </trkpt>
      <trkpt lat="52.050955" lon="8.786896">
        <ele>85.361674</ele>
        <time>2024-09-23T16:57:50.108Z</time>
      </trkpt>
      <trkpt lat="52.050949" lon="8.786970">
        <ele>85.387826</ele>
        <time>2024-09-23T16:57:51.560Z</time>
      </trkpt>
      <trkpt lat="52.050909" lon="8.787028">
        <ele>85.418361</ele>
        <time>2024-09-23T16:57:53.181Z</time>
      </trkpt>
      <trkpt lat="52.050858" lon="8.787046">
        <ele>85.448096</ele>
        <time>2024-09-23T16:57:54.867Z</time>
      </trkpt>
      <trkpt lat="52.050870" lon="8.787148">
        <ele>85.484483</ele>
        <time>2024-09-23T16:57:56.968Z</time>
      </trkpt>
      <trkpt lat="52.050883" lon="8.787259">
        <ele>85.524074</ele>
        <time>2024-09-23T16:57:59.196Z</time>
      </trkpt>
      <trkpt lat="52.050991" lon="8.787299">
        <ele>85.587184</ele>
        <time>2024-09-23T16:58:02.593Z</time>
      </trkpt>
      <trkpt lat="52.051083" lon="8.787252">
        <ele>85.642128</ele>
        <time>2024-09-23T16:58:05.328Z</time>
      </trkpt>
      <trkpt lat="52.051105" lon="8.787483">
        <ele>85.724030</ele>
        <time>2024-09-23T16:58:09.714Z</time>
      </trkpt>
      <trkpt lat="52.050906" lon="8.789054">
        <ele>86.286032</ele>
        <time>2024-09-23T16:58:37.348Z</time>
      </trkpt>
      <trkpt lat="52.050735" lon="8.790267">
        <ele>86.502940</ele>
        <time>2024-09-23T16:58:58.959Z</time>
      </trkpt>
      <trkpt lat="52.050267" lon="8.793653">
        <ele>87.305622</ele>
        <time>2024-09-23T16:59:57.608Z</time>
      </trkpt>
      <trkpt lat="52.050159" lon="8.794426">
        <ele>87.578183</ele>
        <time>2024-09-23T17:00:12.525Z</time>
      </trkpt>
      <trkpt lat="52.050007" lon="8.795478">
        <ele>88.166189</ele>
        <time>2024-09-23T17:00:34.118Z</time>
      </trkpt>
      <trkpt lat="52.049772" lon="8.797219">
        <ele>89.514676</ele>
        <time>2024-09-23T17:01:11.056Z</time>
      </trkpt>
      <trkpt lat="52.049674" lon="8.797973">
        <ele>90.042642</ele>
        <time>2024-09-23T17:01:25.370Z</time>
      </trkpt>
      <trkpt lat="52.049546" lon="8.798846">
        <ele>90.398179</ele>
        <time>2024-09-23T17:01:42.533Z</time>
      </trkpt>
      <trkpt lat="52.049457" lon="8.799284">
        <ele>90.580922</ele>
        <time>2024-09-23T17:01:51.206Z</time>
      </trkpt>
      <trkpt lat="52.049343" lon="8.799646">
        <ele>90.742040</ele>
        <time>2024-09-23T17:01:58.363Z</time>
      </trkpt>
      <trkpt lat="52.049322" lon="8.799713">
        <ele>90.771831</ele>
        <time>2024-09-23T17:01:59.674Z</time>
      </trkpt>
      <trkpt lat="52.049205" lon="8.799966">
        <ele>90.897234</ele>
        <time>2024-09-23T17:02:05.478Z</time>
      </trkpt>
      <trkpt lat="52.048961" lon="8.800406">
        <ele>91.131946</ele>
        <time>2024-09-23T17:02:15.664Z</time>
      </trkpt>
      <trkpt lat="52.048770" lon="8.800731">
        <ele>91.276868</ele>
        <time>2024-09-23T17:02:23.604Z</time>
      </trkpt>
      <trkpt lat="52.048662" lon="8.800913">
        <ele>91.357431</ele>
        <time>2024-09-23T17:02:27.738Z</time>
      </trkpt>
      <trkpt lat="52.048537" lon="8.801124">
        <ele>91.450757</ele>
        <time>2024-09-23T17:02:33.067Z</time>
      </trkpt>
      <trkpt lat="52.048429" lon="8.801309">
        <ele>91.532010</ele>
        <time>2024-09-23T17:02:37.370Z</time>
      </trkpt>
      <trkpt lat="52.047789" lon="8.802393">
        <ele>92.010684</ele>
        <time>2024-09-23T17:03:05.654Z</time>
      </trkpt>
      <trkpt lat="52.047720" lon="8.802443">
        <ele>92.049812</ele>
        <time>2024-09-23T17:03:07.824Z</time>
      </trkpt>
      <trkpt lat="52.047692" lon="8.802532">
        <ele>92.077435</ele>
        <time>2024-09-23T17:03:09.511Z</time>
      </trkpt>
      <trkpt lat="52.045764" lon="8.805867">
        <ele>92.672973</ele>
        <time>2024-09-23T17:04:27.479Z</time>
      </trkpt>
      <trkpt lat="52.045589" lon="8.806270">
        <ele>92.700377</ele>
        <time>2024-09-23T17:04:35.672Z</time>
      </trkpt>
      <trkpt lat="52.045362" lon="8.806795">
        <ele>92.736027</ele>
        <time>2024-09-23T17:04:46.093Z</time>
      </trkpt>
      <trkpt lat="52.044870" lon="8.806554">
        <ele>92.640267</ele>
        <time>2024-09-23T17:04:59.436Z</time>
      </trkpt>
      <trkpt lat="52.044531" lon="8.806372">
        <ele>92.559103</ele>
        <time>2024-09-23T17:05:08.466Z</time>
      </trkpt>
      <trkpt lat="52.044428" lon="8.806320">
        <ele>92.534584</ele>
        <time>2024-09-23T17:05:11.148Z</time>
      </trkpt>
      <trkpt lat="52.044248" lon="8.807562">
        <ele>92.356159</ele>
        <time>2024-09-23T17:05:31.487Z</time>
      </trkpt>
      <trkpt lat="52.044167" lon="8.808118">
        <ele>92.286842</ele>
        <time>2024-09-23T17:05:40.449Z</time>
      </trkpt>
      <trkpt lat="52.043775" lon="8.809745">
        <ele>92.087982</ele>
        <time>2024-09-23T17:06:07.557Z</time>
      </trkpt>
      <trkpt lat="52.042994" lon="8.812611">
        <ele>92.286954</ele>
        <time>2024-09-23T17:07:00.454Z</time>
      </trkpt>
      <trkpt lat="52.042930" lon="8.812799">
        <ele>92.313007</ele>
        <time>2024-09-23T17:07:04.171Z</time>
      </trkpt>
      <trkpt lat="52.042734" lon="8.813155">
        <ele>92.401588</ele>
        <time>2024-09-23T17:07:12.394Z</time>
      </trkpt>
      <trkpt lat="52.042709" lon="8.813265">
        <ele>92.442922</ele>
        <time>2024-09-23T17:07:14.414Z</time>
      </trkpt>
      <trkpt lat="52.042697" lon="8.813768">
        <ele>92.620347</ele>
        <time>2024-09-23T17:07:23.232Z</time>
      </trkpt>
      <trkpt lat="52.042509" lon="8.814344">
        <ele>92.850183</ele>
        <time>2024-09-23T17:07:34.847Z</time>
      </trkpt>
      <trkpt lat="52.042243" lon="8.815364">
        <ele>93.240683</ele>
        <time>2024-09-23T17:07:55.126Z</time>
      </trkpt>
      <trkpt lat="52.041507" lon="8.817987">
        <ele>95.043035</ele>
        <time>2024-09-23T17:08:50.798Z</time>
      </trkpt>
      <trkpt lat="52.040964" lon="8.819812">
        <ele>96.780315</ele>
        <time>2024-09-23T17:09:33.735Z</time>
      </trkpt>
      <trkpt lat="52.040358" lon="8.821850">
        <ele>98.434786</ele>
        <time>2024-09-23T17:10:20.107Z</time>
      </trkpt>
      <trkpt lat="52.040278" lon="8.821965">
        <ele>98.515680</ele>
        <time>2024-09-23T17:10:23.403Z</time>
      </trkpt>
      <trkpt lat="52.040221" lon="8.821980">
        <ele>98.559421</ele>
        <time>2024-09-23T17:10:25.215Z</time>
      </trkpt>
      <trkpt lat="52.038806" lon="8.821440">
        <ele>99.335891</ele>
        <time>2024-09-23T17:11:07.159Z</time>
      </trkpt>
      <trkpt lat="52.038524" lon="8.821334">
        <ele>99.309155</ele>
        <time>2024-09-23T17:11:14.719Z</time>
      </trkpt>
      <trkpt lat="52.038437" lon="8.821490">
        <ele>99.297191</ele>
        <time>2024-09-23T17:11:18.157Z</time>
      </trkpt>
      <trkpt lat="52.038252" lon="8.821303">
        <ele>99.277069</ele>
        <time>2024-09-23T17:11:23.752Z</time>
      </trkpt>
      <trkpt lat="52.038120" lon="8.821212">
        <ele>99.263825</ele>
        <time>2024-09-23T17:11:27.489Z</time>
      </trkpt>
      <trkpt lat="52.037785" lon="8.821079">
        <ele>99.231971</ele>
        <time>2024-09-23T17:11:36.295Z</time>
      </trkpt>
      <trkpt lat="52.036559" lon="8.820610">
        <ele>98.808135</ele>
        <time>2024-09-23T17:12:07.269Z</time>
      </trkpt>
      <trkpt lat="52.036275" lon="8.820503">
        <ele>98.688576</ele>
        <time>2024-09-23T17:12:14.492Z</time>
      </trkpt>
      <trkpt lat="52.036060" lon="8.820428">
        <ele>98.598395</ele>
        <time>2024-09-23T17:12:20.066Z</time>
      </trkpt>
      <trkpt lat="52.035196" lon="8.820136">
        <ele>98.497170</ele>
        <time>2024-09-23T17:12:42.817Z</time>
      </trkpt>
      <trkpt lat="52.035028" lon="8.820079">
        <ele>98.506250</ele>
        <time>2024-09-23T17:12:47.450Z</time>
      </trkpt>
      <trkpt lat="52.034824" lon="8.823254">
        <ele>98.530926</ele>
        <time>2024-09-23T17:13:41.681Z</time>
      </trkpt>
      <trkpt lat="52.034532" lon="8.823047">
        <ele>98.519733</ele>
        <time>2024-09-23T17:13:50.181Z</time>
      </trkpt>
      <trkpt lat="52.034332" lon="8.822783">
        <ele>98.510680</ele>
        <time>2024-09-23T17:13:56.838Z</time>
      </trkpt>
      <trkpt lat="52.034197" lon="8.822502">
        <ele>98.502973</ele>
        <time>2024-09-23T17:14:02.415Z</time>
      </trkpt>
      <trkpt lat="52.034128" lon="8.822534">
        <ele>98.500452</ele>
        <time>2024-09-23T17:14:04.211Z</time>
      </trkpt>
      <trkpt lat="52.033790" lon="8.822407">
        <ele>98.380036</ele>
        <time>2024-09-23T17:14:12.762Z</time>
      </trkpt>
      <trkpt lat="52.033632" lon="8.822347">
        <ele>98.318654</ele>
        <time>2024-09-23T17:14:16.730Z</time>
      </trkpt>
      <trkpt lat="52.033407" lon="8.822284">
        <ele>98.232282</ele>
        <time>2024-09-23T17:14:22.855Z</time>
      </trkpt>
      <trkpt lat="52.033307" lon="8.822339">
        <ele>98.192345</ele>
        <time>2024-09-23T17:14:25.779Z</time>
      </trkpt>
      <trkpt lat="52.033204" lon="8.822451">
        <ele>98.145465</ele>
        <time>2024-09-23T17:14:29.117Z</time>
      </trkpt>
      <trkpt lat="52.033135" lon="8.822457">
        <ele>98.119325</ele>
        <time>2024-09-23T17:14:30.876Z</time>
      </trkpt>
      <trkpt lat="52.033083" lon="8.822507">
        <ele>98.096469</ele>
        <time>2024-09-23T17:14:32.459Z</time>
      </trkpt>
      <trkpt lat="52.033027" lon="8.822780">
        <ele>98.029493</ele>
        <time>2024-09-23T17:14:37.118Z</time>
      </trkpt>
      <trkpt lat="52.032780" lon="8.824041">
        <ele>97.881508</ele>
        <time>2024-09-23T17:14:58.734Z</time>
      </trkpt>
      <trkpt lat="52.032457" lon="8.825724">
        <ele>98.145183</ele>
        <time>2024-09-23T17:15:29.906Z</time>
      </trkpt>
      <trkpt lat="52.032158" lon="8.827281">
        <ele>98.674162</ele>
        <time>2024-09-23T17:16:01.306Z</time>
      </trkpt>
      <trkpt lat="52.032072" lon="8.827756">
        <ele>98.906964</ele>
        <time>2024-09-23T17:16:10.979Z</time>
      </trkpt>
      <trkpt lat="52.032022" lon="8.828219">
        <ele>99.127983</ele>
        <time>2024-09-23T17:16:20.227Z</time>
      </trkpt>
      <trkpt lat="52.032009" lon="8.828834">
        <ele>99.417311</ele>
        <time>2024-09-23T17:16:32.266Z</time>
      </trkpt>
      <trkpt lat="52.032004" lon="8.830417">
        <ele>100.025041</ele>
        <time>2024-09-23T17:17:02.802Z</time>
      </trkpt>
      <trkpt lat="52.032005" lon="8.831031">
        <ele>100.239461</ele>
        <time>2024-09-23T17:17:14.422Z</time>
      </trkpt>
      <trkpt lat="52.032001" lon="8.832871">
        <ele>100.702774</ele>
        <time>2024-09-23T17:17:48.096Z</time>
      </trkpt>
      <trkpt lat="52.032018" lon="8.833046">
        <ele>100.716489</ele>
        <time>2024-09-23T17:17:51.149Z</time>
      </trkpt>
      <trkpt lat="52.031941" lon="8.833071">
        <ele>100.726370</ele>
        <time>2024-09-23T17:17:53.265Z</time>
      </trkpt>
      <trkpt lat="52.031286" lon="8.832911">
        <ele>100.809715</ele>
        <time>2024-09-23T17:18:10.893Z</time>
      </trkpt>
      <trkpt lat="52.029713" lon="8.832527">
        <ele>100.935002</ele>
        <time>2024-09-23T17:18:53.972Z</time>
      </trkpt>
      <trkpt lat="52.029631" lon="8.832532">
        <ele>100.939464</ele>
        <time>2024-09-23T17:18:56.274Z</time>
      </trkpt>
      <trkpt lat="52.029335" lon="8.832517">
        <ele>100.955564</ele>
        <time>2024-09-23T17:19:04.336Z</time>
      </trkpt>
      <trkpt lat="52.029344" lon="8.832636">
        <ele>100.959575</ele>
        <time>2024-09-23T17:19:06.398Z</time>
      </trkpt>
      <trkpt lat="52.029282" lon="8.833372">
        <ele>100.872141</ele>
        <time>2024-09-23T17:19:18.564Z</time>
      </trkpt>
      <trkpt lat="52.029236" lon="8.834175">
        <ele>100.546472</ele>
        <time>2024-09-23T17:19:31.076Z</time>
      </trkpt>
      <trkpt lat="52.028614" lon="8.834131">
        <ele>100.137842</ele>
        <time>2024-09-23T17:19:46.164Z</time>
      </trkpt>
      <trkpt lat="52.028041" lon="8.834140">
        <ele>99.706436</ele>
        <time>2024-09-23T17:19:59.368Z</time>
      </trkpt>
      <trkpt lat="52.027836" lon="8.834146">
        <ele>99.350169</ele>
        <time>2024-09-23T17:20:03.859Z</time>
      </trkpt>
      <trkpt lat="52.027727" lon="8.834161">
        <ele>99.160092</ele>
        <time>2024-09-23T17:20:06.240Z</time>
      </trkpt>
      <trkpt lat="52.027731" lon="8.834542">
        <ele>98.752701</ele>
        <time>2024-09-23T17:20:11.459Z</time>
      </trkpt>
      <trkpt lat="52.027741" lon="8.835509">
        <ele>97.718723</ele>
        <time>2024-09-23T17:20:24.667Z</time>
      </trkpt>
      <trkpt lat="52.027736" lon="8.836040">
        <ele>97.150958</ele>
        <time>2024-09-23T17:20:31.976Z</time>
      </trkpt>
      <trkpt lat="52.027698" lon="8.836075">
        <ele>97.075063</ele>
        <time>2024-09-23T17:20:32.948Z</time>
      </trkpt>
      <trkpt lat="52.026997" lon="8.836143">
        <ele>95.792757</ele>
        <time>2024-09-23T17:20:48.736Z</time>
      </trkpt>
      <trkpt lat="52.026978" lon="8.836263">
        <ele>95.650193</ele>
        <time>2024-09-23T17:20:50.451Z</time>
      </trkpt>
      <trkpt lat="52.026983" lon="8.836542">
        <ele>95.329053</ele>
        <time>2024-09-23T17:20:54.260Z</time>
      </trkpt>
      <trkpt lat="52.026998" lon="8.837299">
        <ele>94.457634</ele>
        <time>2024-09-23T17:21:04.569Z</time>
      </trkpt>
      <trkpt lat="52.026561" lon="8.837322">
        <ele>93.640046</ele>
        <time>2024-09-23T17:21:13.984Z</time>
      </trkpt>
      <trkpt lat="52.025750" lon="8.837420">
        <ele>92.283146</ele>
        <time>2024-09-23T17:21:31.415Z</time>
      </trkpt>
      <trkpt lat="52.025723" lon="8.837420">
        <ele>92.239623</ele>
        <time>2024-09-23T17:21:31.978Z</time>
      </trkpt>
      <trkpt lat="52.025717" lon="8.837558">
        <ele>92.102407</ele>
        <time>2024-09-23T17:21:33.767Z</time>
      </trkpt>
      <trkpt lat="52.025759" lon="8.837955">
        <ele>91.702865</ele>
        <time>2024-09-23T17:21:39.065Z</time>
      </trkpt>
      <trkpt lat="52.025720" lon="8.838258">
        <ele>91.395831</ele>
        <time>2024-09-23T17:21:43.172Z</time>
      </trkpt>
      <trkpt lat="52.025624" lon="8.838233">
        <ele>91.239109</ele>
        <time>2024-09-23T17:21:45.244Z</time>
      </trkpt>
      <trkpt lat="52.025334" lon="8.838249">
        <ele>90.771373</ele>
        <time>2024-09-23T17:21:51.598Z</time>
      </trkpt>
      <trkpt lat="52.024579" lon="8.838291">
        <ele>90.192744</ele>
        <time>2024-09-23T17:22:09.094Z</time>
      </trkpt>
      <trkpt lat="52.024604" lon="8.838496">
        <ele>90.140642</ele>
        <time>2024-09-23T17:22:12.402Z</time>
      </trkpt>
      <trkpt lat="52.024637" lon="8.839389">
        <ele>89.917613</ele>
        <time>2024-09-23T17:22:26.059Z</time>
      </trkpt>
      <trkpt lat="52.024658" lon="8.839927">
        <ele>89.783218</ele>
        <time>2024-09-23T17:22:34.945Z</time>
      </trkpt>
      <trkpt lat="52.024735" lon="8.840683">
        <ele>89.683507</ele>
        <time>2024-09-23T17:22:48.526Z</time>
      </trkpt>
      <trkpt lat="52.024865" lon="8.841586">
        <ele>89.696703</ele>
        <time>2024-09-23T17:23:04.925Z</time>
      </trkpt>
      <trkpt lat="52.025052" lon="8.842919">
        <ele>89.716158</ele>
        <time>2024-09-23T17:23:27.028Z</time>
      </trkpt>
      <trkpt lat="52.025147" lon="8.843702">
        <ele>89.488099</ele>
        <time>2024-09-23T17:23:39.192Z</time>
      </trkpt>
      <trkpt lat="52.025181" lon="8.844191">
        <ele>89.266819</ele>
        <time>2024-09-23T17:23:46.449Z</time>
      </trkpt>
      <trkpt lat="52.025172" lon="8.844526">
        <ele>89.116041</ele>
        <time>2024-09-23T17:23:51.299Z</time>
      </trkpt>
      <trkpt lat="52.024980" lon="8.845804">
        <ele>88.524501</ele>
        <time>2024-09-23T17:24:09.957Z</time>
      </trkpt>
      <trkpt lat="52.024965" lon="8.845906">
        <ele>88.477344</ele>
        <time>2024-09-23T17:24:11.458Z</time>
      </trkpt>
      <trkpt lat="52.024956" lon="8.846124">
        <ele>88.404424</ele>
        <time>2024-09-23T17:24:14.572Z</time>
      </trkpt>
      <trkpt lat="52.024935" lon="8.848024">
        <ele>88.361164</ele>
        <time>2024-09-23T17:24:44.428Z</time>
      </trkpt>
      <trkpt lat="52.024926" lon="8.848910">
        <ele>88.340991</ele>
        <time>2024-09-23T17:25:00.443Z</time>
      </trkpt>
      <trkpt lat="52.024965" lon="8.849130">
        <ele>88.435042</ele>
        <time>2024-09-23T17:25:04.762Z</time>
      </trkpt>
      <trkpt lat="52.025194" lon="8.849753">
        <ele>88.893715</ele>
        <time>2024-09-23T17:25:18.693Z</time>
      </trkpt>
      <trkpt lat="52.025278" lon="8.850057">
        <ele>89.104340</ele>
        <time>2024-09-23T17:25:25.218Z</time>
      </trkpt>
      <trkpt lat="52.025486" lon="8.851092">
        <ele>89.792508</ele>
        <time>2024-09-23T17:25:47.304Z</time>
      </trkpt>
      <trkpt lat="52.025776" lon="8.853553">
        <ele>91.141682</ele>
        <time>2024-09-23T17:26:36.047Z</time>
      </trkpt>
      <trkpt lat="52.026108" lon="8.857217">
        <ele>92.394274</ele>
        <time>2024-09-23T17:27:41.362Z</time>
      </trkpt>
      <trkpt lat="52.026123" lon="8.857417">
        <ele>92.449085</ele>
        <time>2024-09-23T17:27:45.029Z</time>
      </trkpt>
      <trkpt lat="52.026086" lon="8.857528">
        <ele>92.478476</ele>
        <time>2024-09-23T17:27:47.218Z</time>
      </trkpt>
      <trkpt lat="52.026170" lon="8.857847">
        <ele>92.547153</ele>
        <time>2024-09-23T17:27:53.570Z</time>
      </trkpt>
      <trkpt lat="52.026263" lon="8.859241">
        <ele>92.824677</ele>
        <time>2024-09-23T17:28:18.144Z</time>
      </trkpt>
      <trkpt lat="52.026291" lon="8.859989">
        <ele>92.972999</ele>
        <time>2024-09-23T17:28:31.054Z</time>
      </trkpt>
      <trkpt lat="52.026258" lon="8.862304">
        <ele>93.303184</ele>
        <time>2024-09-23T17:29:10.444Z</time>
      </trkpt>
      <trkpt lat="52.026306" lon="8.862981">
        <ele>93.393465</ele>
        <time>2024-09-23T17:29:21.802Z</time>
      </trkpt>
      <trkpt lat="52.026519" lon="8.864529">
        <ele>93.348331</ele>
        <time>2024-09-23T17:29:48.970Z</time>
      </trkpt>
      <trkpt lat="52.026600" lon="8.865134">
        <ele>93.308990</ele>
        <time>2024-09-23T17:29:59.228Z</time>
      </trkpt>
      <trkpt lat="52.026598" lon="8.865289">
        <ele>93.299140</ele>
        <time>2024-09-23T17:30:01.696Z</time>
      </trkpt>
      <trkpt lat="52.026592" lon="8.865806">
        <ele>93.266284</ele>
        <time>2024-09-23T17:30:09.691Z</time>
      </trkpt>
      <trkpt lat="52.026582" lon="8.866146">
        <ele>93.237973</ele>
        <time>2024-09-23T17:30:14.848Z</time>
      </trkpt>
      <trkpt lat="52.025615" lon="8.866152">
        <ele>92.162638</ele>
        <time>2024-09-23T17:30:38.195Z</time>
      </trkpt>
      <trkpt lat="52.024817" lon="8.866251">
        <ele>91.272661</ele>
        <time>2024-09-23T17:30:56.765Z</time>
      </trkpt>
      <trkpt lat="52.024700" lon="8.866285">
        <ele>91.178162</ele>
        <time>2024-09-23T17:30:59.515Z</time>
      </trkpt>
      <trkpt lat="52.024297" lon="8.866657">
        <ele>90.848182</ele>
        <time>2024-09-23T17:31:10.490Z</time>
      </trkpt>
      <trkpt lat="52.024063" lon="8.867157">
        <ele>90.572974</ele>
        <time>2024-09-23T17:31:19.907Z</time>
      </trkpt>
      <trkpt lat="52.023876" lon="8.867935">
        <ele>90.207050</ele>
        <time>2024-09-23T17:31:33.127Z</time>
      </trkpt>
      <trkpt lat="52.023844" lon="8.868089">
        <ele>90.135839</ele>
        <time>2024-09-23T17:31:35.837Z</time>
      </trkpt>
      <trkpt lat="52.023648" lon="8.869033">
        <ele>90.068021</ele>
        <time>2024-09-23T17:31:53.076Z</time>
      </trkpt>
      <trkpt lat="52.023323" lon="8.871864">
        <ele>90.567309</ele>
        <time>2024-09-23T17:32:45.735Z</time>
      </trkpt>
      <trkpt lat="52.023220" lon="8.873068">
        <ele>90.790987</ele>
        <time>2024-09-23T17:33:07.798Z</time>
      </trkpt>
      <trkpt lat="52.023081" lon="8.876352">
        <ele>91.366447</ele>
        <time>2024-09-23T17:34:05.942Z</time>
      </trkpt>
      <trkpt lat="52.023073" lon="8.877880">
        <ele>91.901550</ele>
        <time>2024-09-23T17:34:34.273Z</time>
      </trkpt>
      <trkpt lat="52.023077" lon="8.878018">
        <ele>91.975652</ele>
        <time>2024-09-23T17:34:37.223Z</time>
      </trkpt>
      <trkpt lat="52.023162" lon="8.879956">
        <ele>93.017779</ele>
        <time>2024-09-23T17:35:15.727Z</time>
      </trkpt>
      <trkpt lat="52.023154" lon="8.880148">
        <ele>93.148278</ele>
        <time>2024-09-23T17:35:19.567Z</time>
      </trkpt>
      <trkpt lat="52.023060" lon="8.880483">
        <ele>93.444032</ele>
        <time>2024-09-23T17:35:27.682Z</time>
      </trkpt>
      <trkpt lat="52.022951" lon="8.880604">
        <ele>93.616350</ele>
        <time>2024-09-23T17:35:32.345Z</time>
      </trkpt>
      <trkpt lat="52.022673" lon="8.880847">
        <ele>94.028419</ele>
        <time>2024-09-23T17:35:43.037Z</time>
      </trkpt>
      <trkpt lat="52.022455" lon="8.881022">
        <ele>94.345825</ele>
        <time>2024-09-23T17:35:50.777Z</time>
      </trkpt>
      <trkpt lat="52.021999" lon="8.881291">
        <ele>94.979097</ele>
        <time>2024-09-23T17:36:07.339Z</time>
      </trkpt>
      <trkpt lat="52.021880" lon="8.881367">
        <ele>95.146007</ele>
        <time>2024-09-23T17:36:11.623Z</time>
      </trkpt>
      <trkpt lat="52.021902" lon="8.881580">
        <ele>95.319502</ele>
        <time>2024-09-23T17:36:15.956Z</time>
      </trkpt>
      <trkpt lat="52.021801" lon="8.881607">
        <ele>95.472439</ele>
        <time>2024-09-23T17:36:19.749Z</time>
      </trkpt>
      <trkpt lat="52.021738" lon="8.881557">
        <ele>95.609322</ele>
        <time>2024-09-23T17:36:22.035Z</time>
      </trkpt>
      <trkpt lat="52.021520" lon="8.881645">
        <ele>96.047870</ele>
        <time>2024-09-23T17:36:29.964Z</time>
      </trkpt>
      <trkpt lat="52.021213" lon="8.881690">
        <ele>96.649675</ele>
        <time>2024-09-23T17:36:40.620Z</time>
      </trkpt>
      <trkpt lat="52.020752" lon="8.881759">
        <ele>97.553518</ele>
        <time>2024-09-23T17:36:57.819Z</time>
      </trkpt>
      <trkpt lat="52.020647" lon="8.881798">
        <ele>97.763802</ele>
        <time>2024-09-23T17:37:02.704Z</time>
      </trkpt>
      <trkpt lat="52.020514" lon="8.882066">
        <ele>98.177443</ele>
        <time>2024-09-23T17:37:10.806Z</time>
      </trkpt>
      <trkpt lat="52.020491" lon="8.882068">
        <ele>98.222411</ele>
        <time>2024-09-23T17:37:11.763Z</time>
      </trkpt>
      <trkpt lat="52.020436" lon="8.882081">
        <ele>98.330920</ele>
        <time>2024-09-23T17:37:13.873Z</time>
      </trkpt>
      <trkpt lat="52.020381" lon="8.882072">
        <ele>98.438843</ele>
        <time>2024-09-23T17:37:15.792Z</time>
      </trkpt>
      <trkpt lat="52.020458" lon="8.882569">
        <ele>99.029811</ele>
        <time>2024-09-23T17:37:27.571Z</time>
      </trkpt>
      <trkpt lat="52.020545" lon="8.883138">
        <ele>99.598766</ele>
        <time>2024-09-23T17:37:40.842Z</time>
      </trkpt>
      <trkpt lat="52.020799" lon="8.884162">
        <ele>100.670155</ele>
        <time>2024-09-23T17:38:04.435Z</time>
      </trkpt>
      <trkpt lat="52.020913" lon="8.884722">
        <ele>101.242546</ele>
        <time>2024-09-23T17:38:16.089Z</time>
      </trkpt>
      <trkpt lat="52.020963" lon="8.885105">
        <ele>101.622482</ele>
        <time>2024-09-23T17:38:23.565Z</time>
      </trkpt>
      <trkpt lat="52.021056" lon="8.885770">
        <ele>101.992260</ele>
        <time>2024-09-23T17:38:37.061Z</time>
      </trkpt>
      <trkpt lat="52.021037" lon="8.886166">
        <ele>102.162173</ele>
        <time>2024-09-23T17:38:44.697Z</time>
      </trkpt>
      <trkpt lat="52.021137" lon="8.886910">
        <ele>102.487941</ele>
        <time>2024-09-23T17:38:58.608Z</time>
      </trkpt>
      <trkpt lat="52.021142" lon="8.887379">
        <ele>102.688597</ele>
        <time>2024-09-23T17:39:06.668Z</time>
      </trkpt>
      <trkpt lat="52.021188" lon="8.887437">
        <ele>102.729070</ele>
        <time>2024-09-23T17:39:08.347Z</time>
      </trkpt>
      <trkpt lat="52.021246" lon="8.887929">
        <ele>102.943362</ele>
        <time>2024-09-23T17:39:16.968Z</time>
      </trkpt>
      <trkpt lat="52.021253" lon="8.887987">
        <ele>102.968646</ele>
        <time>2024-09-23T17:39:18.128Z</time>
      </trkpt>
      <trkpt lat="52.021256" lon="8.888123">
        <ele>103.027389</ele>
        <time>2024-09-23T17:39:20.851Z</time>
      </trkpt>
      <trkpt lat="52.021271" lon="8.888276">
        <ele>103.096089</ele>
        <time>2024-09-23T17:39:24.340Z</time>
      </trkpt>
      <trkpt lat="52.021309" lon="8.888503">
        <ele>103.200404</ele>
        <time>2024-09-23T17:39:28.466Z</time>
      </trkpt>
      <trkpt lat="52.021316" lon="8.888552">
        <ele>103.222709</ele>
        <time>2024-09-23T17:39:29.491Z</time>
      </trkpt>
      <trkpt lat="52.021364" lon="8.889124">
        <ele>103.478695</ele>
        <time>2024-09-23T17:39:40.344Z</time>
      </trkpt>
      <trkpt lat="52.021395" lon="8.889494">
        <ele>103.644275</ele>
        <time>2024-09-23T17:39:47.553Z</time>
      </trkpt>
      <trkpt lat="52.021696" lon="8.891769">
        <ele>104.613990</ele>
        <time>2024-09-23T17:40:30.672Z</time>
      </trkpt>
      <trkpt lat="52.021712" lon="8.891889">
        <ele>104.659236</ele>
        <time>2024-09-23T17:40:33.281Z</time>
      </trkpt>
      <trkpt lat="52.022249" lon="8.895833">
        <ele>105.564515</ele>
        <time>2024-09-23T17:41:45.277Z</time>
      </trkpt>
      <trkpt lat="52.022248" lon="8.896083">
        <ele>105.586148</ele>
        <time>2024-09-23T17:41:49.588Z</time>
      </trkpt>
      <trkpt lat="52.022220" lon="8.896184">
        <ele>105.595734</ele>
        <time>2024-09-23T17:41:51.276Z</time>
      </trkpt>
      <trkpt lat="52.022153" lon="8.896281">
        <ele>105.608351</ele>
        <time>2024-09-23T17:41:53.285Z</time>
      </trkpt>
      <trkpt lat="52.022089" lon="8.896304">
        <ele>105.617568</ele>
        <time>2024-09-23T17:41:54.820Z</time>
      </trkpt>
      <trkpt lat="52.022081" lon="8.896342">
        <ele>105.621044</ele>
        <time>2024-09-23T17:41:55.437Z</time>
      </trkpt>
      <trkpt lat="52.022073" lon="8.896374">
        <ele>105.624032</ele>
        <time>2024-09-23T17:41:56.015Z</time>
      </trkpt>
      <trkpt lat="52.022066" lon="8.896404">
        <ele>105.626809</ele>
        <time>2024-09-23T17:41:56.536Z</time>
      </trkpt>
      <trkpt lat="52.022051" lon="8.896448">
        <ele>105.631161</ele>
        <time>2024-09-23T17:41:57.424Z</time>
      </trkpt>
      <trkpt lat="52.022044" lon="8.896467">
        <ele>105.633077</ele>
        <time>2024-09-23T17:41:57.813Z</time>
      </trkpt>
      <trkpt lat="52.022033" lon="8.896492">
        <ele>105.635737</ele>
        <time>2024-09-23T17:41:58.346Z</time>
      </trkpt>
      <trkpt lat="52.022011" lon="8.896539">
        <ele>105.617965</ele>
        <time>2024-09-23T17:41:59.431Z</time>
      </trkpt>
      <trkpt lat="52.022092" lon="8.896740">
        <ele>105.439588</ele>
        <time>2024-09-23T17:42:02.654Z</time>
      </trkpt>
      <trkpt lat="52.022376" lon="8.897071">
        <ele>105.017939</ele>
        <time>2024-09-23T17:42:10.878Z</time>
      </trkpt>
      <trkpt lat="52.022560" lon="8.897426">
        <ele>104.673351</ele>
        <time>2024-09-23T17:42:17.702Z</time>
      </trkpt>
      <trkpt lat="52.022629" lon="8.897629">
        <ele>104.501180</ele>
        <time>2024-09-23T17:42:20.936Z</time>
      </trkpt>
      <trkpt lat="52.022721" lon="8.898139">
        <ele>104.106621</ele>
        <time>2024-09-23T17:42:27.832Z</time>
      </trkpt>
      <trkpt lat="52.022798" lon="8.898823">
        <ele>103.590391</ele>
        <time>2024-09-23T17:42:37.142Z</time>
      </trkpt>
      <trkpt lat="52.022801" lon="8.899414">
        <ele>103.213712</ele>
        <time>2024-09-23T17:42:45.228Z</time>
      </trkpt>
      <trkpt lat="52.022794" lon="8.899612">
        <ele>103.095331</ele>
        <time>2024-09-23T17:42:47.837Z</time>
      </trkpt>
      <trkpt lat="52.022794" lon="8.899637">
        <ele>103.080409</ele>
        <time>2024-09-23T17:42:48.175Z</time>
      </trkpt>
      <trkpt lat="52.022793" lon="8.899667">
        <ele>103.062475</ele>
        <time>2024-09-23T17:42:48.586Z</time>
      </trkpt>
      <trkpt lat="52.022792" lon="8.899707">
        <ele>103.038580</ele>
        <time>2024-09-23T17:42:49.124Z</time>
      </trkpt>
      <trkpt lat="52.022797" lon="8.899796">
        <ele>102.985235</ele>
        <time>2024-09-23T17:42:50.433Z</time>
      </trkpt>
      <trkpt lat="52.022828" lon="8.899981">
        <ele>102.870788</ele>
        <time>2024-09-23T17:42:54.248Z</time>
      </trkpt>
      <trkpt lat="52.022833" lon="8.900013">
        <ele>102.851081</ele>
        <time>2024-09-23T17:42:55.022Z</time>
      </trkpt>
      <trkpt lat="52.022863" lon="8.900004">
        <ele>102.821489</ele>
        <time>2024-09-23T17:42:55.910Z</time>
      </trkpt>
      <trkpt lat="52.022906" lon="8.899993">
        <ele>102.779264</ele>
        <time>2024-09-23T17:42:56.808Z</time>
      </trkpt>
      <trkpt lat="52.022963" lon="8.899978">
        <ele>102.723253</ele>
        <time>2024-09-23T17:42:58.135Z</time>
      </trkpt>
      <trkpt lat="52.023041" lon="8.899928">
        <ele>102.641919</ele>
        <time>2024-09-23T17:43:00.804Z</time>
      </trkpt>
      <trkpt lat="52.023091" lon="8.899889">
        <ele>102.588120</ele>
        <time>2024-09-23T17:43:02.541Z</time>
      </trkpt>
      <trkpt lat="52.023128" lon="8.899859">
        <ele>102.548011</ele>
        <time>2024-09-23T17:43:03.884Z</time>
      </trkpt>
      <trkpt lat="52.023141" lon="8.900070">
        <ele>102.421437</ele>
        <time>2024-09-23T17:43:06.997Z</time>
      </trkpt>
      <trkpt lat="52.023118" lon="8.900420">
        <ele>102.211336</ele>
        <time>2024-09-23T17:43:12.279Z</time>
      </trkpt>
      <trkpt lat="52.023098" lon="8.901275">
        <ele>101.706601</ele>
        <time>2024-09-23T17:43:25.194Z</time>
      </trkpt>
      <trkpt lat="52.023051" lon="8.902002">
        <ele>101.383148</ele>
        <time>2024-09-23T17:43:35.822Z</time>
      </trkpt>
      <trkpt lat="52.023028" lon="8.902211">
        <ele>101.289202</ele>
        <time>2024-09-23T17:43:38.804Z</time>
      </trkpt>
      <trkpt lat="52.023051" lon="8.902002">
        <ele>101.195257</ele>
        <time>2024-09-23T17:43:42.237Z</time>
      </trkpt>
      <trkpt lat="52.023098" lon="8.901275">
        <ele>100.871804</ele>
        <time>2024-09-23T17:43:53.370Z</time>
      </trkpt>
      <trkpt lat="52.023118" lon="8.900420">
        <ele>100.493211</ele>
        <time>2024-09-23T17:44:05.546Z</time>
      </trkpt>
      <trkpt lat="52.023141" lon="8.900070">
        <ele>100.340509</ele>
        <time>2024-09-23T17:44:10.649Z</time>
      </trkpt>
      <trkpt lat="52.023128" lon="8.899859">
        <ele>100.249756</ele>
        <time>2024-09-23T17:44:13.689Z</time>
      </trkpt>
      <trkpt lat="52.023406" lon="8.899712">
        <ele>100.046430</ele>
        <time>2024-09-23T17:44:22.976Z</time>
      </trkpt>
      <trkpt lat="52.023471" lon="8.899642">
        <ele>99.992198</ele>
        <time>2024-09-23T17:44:25.716Z</time>
      </trkpt>
      <trkpt lat="52.023555" lon="8.899599">
        <ele>99.930946</ele>
        <time>2024-09-23T17:44:28.750Z</time>
      </trkpt>
      <trkpt lat="52.023616" lon="8.899563">
        <ele>99.885810</ele>
        <time>2024-09-23T17:44:30.307Z</time>
      </trkpt>
      <trkpt lat="52.023683" lon="8.899522">
        <ele>99.836017</ele>
        <time>2024-09-23T17:44:31.997Z</time>
      </trkpt>
      <trkpt lat="52.023849" lon="8.899407">
        <ele>99.710513</ele>
        <time>2024-09-23T17:44:36.587Z</time>
      </trkpt>
      <trkpt lat="52.024068" lon="8.899374">
        <ele>99.557545</ele>
        <time>2024-09-23T17:44:41.616Z</time>
      </trkpt>
      <trkpt lat="52.024100" lon="8.899368">
        <ele>99.535142</ele>
        <time>2024-09-23T17:44:42.367Z</time>
      </trkpt>
      <trkpt lat="52.024077" lon="8.899614">
        <ele>99.428655</ele>
        <time>2024-09-23T17:44:46.452Z</time>
      </trkpt>
      <trkpt lat="52.023986" lon="8.901106">
        <ele>99.044920</ele>
        <time>2024-09-23T17:45:09.323Z</time>
      </trkpt>
      <trkpt lat="52.023918" lon="8.901989">
        <ele>98.914390</ele>
        <time>2024-09-23T17:45:24.115Z</time>
      </trkpt>
      <trkpt lat="52.023946" lon="8.903493">
        <ele>98.656204</ele>
        <time>2024-09-23T17:45:47.557Z</time>
      </trkpt>
      <trkpt lat="52.023892" lon="8.904000">
        <ele>98.531090</ele>
        <time>2024-09-23T17:45:55.476Z</time>
      </trkpt>
      <trkpt lat="52.023872" lon="8.904100">
        <ele>98.505523</ele>
        <time>2024-09-23T17:45:57.073Z</time>
      </trkpt>
      <trkpt lat="52.023851" lon="8.904259">
        <ele>98.465980</ele>
        <time>2024-09-23T17:45:59.637Z</time>
      </trkpt>
      <trkpt lat="52.023846" lon="8.904631">
        <ele>98.375504</ele>
        <time>2024-09-23T17:46:05.320Z</time>
      </trkpt>
      <trkpt lat="52.023984" lon="8.905573">
        <ele>98.140048</ele>
        <time>2024-09-23T17:46:20.095Z</time>
      </trkpt>
      <trkpt lat="52.024136" lon="8.906030">
        <ele>98.039902</ele>
        <time>2024-09-23T17:46:28.179Z</time>
      </trkpt>
      <trkpt lat="52.024340" lon="8.906308">
        <ele>98.039902</ele>
        <time>2024-09-23T17:46:34.827Z</time>
      </trkpt>
      <trkpt lat="52.024396" lon="8.906385">
        <ele>98.039902</ele>
        <time>2024-09-23T17:46:36.799Z</time>
      </trkpt>
      <trkpt lat="52.025135" lon="8.907017">
        <ele>98.039902</ele>
        <time>2024-09-23T17:46:57.850Z</time>
      </trkpt>
      <trkpt lat="52.025188" lon="8.907045">
        <ele>98.039902</ele>
        <time>2024-09-23T17:46:59.751Z</time>
      </trkpt>
      <trkpt lat="52.025203" lon="8.907453">
        <ele>98.039902</ele>
        <time>2024-09-23T17:47:06.447Z</time>
      </trkpt>
      <trkpt lat="52.025148" lon="8.907466">
        <ele>98.039902</ele>
        <time>2024-09-23T17:47:08.316Z</time>
      </trkpt>
      <trkpt lat="52.025134" lon="8.907465">
        <ele>98.039902</ele>
        <time>2024-09-23T17:47:08.801Z</time>
      </trkpt>
      <trkpt lat="52.025044" lon="8.907447">
        <ele>98.039902</ele>
        <time>2024-09-23T17:47:11.075Z</time>
      </trkpt>
      <trkpt lat="52.024891" lon="8.907415">
        <ele>98.039902</ele>
        <time>2024-09-23T17:47:15.025Z</time>
      </trkpt>
      <trkpt lat="52.024761" lon="8.907326">
        <ele>98.039902</ele>
        <time>2024-09-23T17:47:18.645Z</time>
      </trkpt>
      <trkpt lat="52.024630" lon="8.907230">
        <ele>98.039902</ele>
        <time>2024-09-23T17:47:22.258Z</time>
      </trkpt>
      <trkpt lat="52.024501" lon="8.907135">
        <ele>98.039902</ele>
        <time>2024-09-23T17:47:25.924Z</time>
      </trkpt>
      <trkpt lat="52.024459" lon="8.907294">
        <ele>98.039902</ele>
        <time>2024-09-23T17:47:28.804Z</time>
      </trkpt>
    </trkseg>
  </trk>
</gpx>